<?xml version="1.0" encoding="UTF-8" standalone="no" ?>
<gpx xmlns="http://www.topografix.com/GPX/1/1" xmlns:xsi="http://www.w3.org/2001/XMLSchema-instance" xsi:schemaLocation="http://www.topografix.com/GPX/1/1 http://www.topografix.com/GPX/1/1/gpx.xsd" version="1.1" creator="VisuGPX - https://www.visugpx.com">
  <metadata>
    <name>Tour du Biros en 4 Jours</name>
  </metadata>
  <trk>
    <name><![CDATA[ACTIVE LOG 016]]></name>
    <trkseg>
      <trkpt lat="42.83409" lon="0.87885">
        <ele>1882.3986816406</ele>
        <time>2019-05-26T12:11:52Z</time>
      </trkpt>
      <trkpt lat="42.83405" lon="0.87886">
        <ele>1882.3986816406</ele>
        <time>2019-05-26T12:12:17Z</time>
      </trkpt>
      <trkpt lat="42.83401" lon="0.87885">
        <ele>1885.7634277344</ele>
        <time>2019-05-26T12:12:28Z</time>
      </trkpt>
      <trkpt lat="42.83396" lon="0.87886">
        <ele>1886.724609375</ele>
        <time>2019-05-26T12:12:32Z</time>
      </trkpt>
      <trkpt lat="42.8339" lon="0.87886">
        <ele>1887.6860351562</ele>
        <time>2019-05-26T12:12:47Z</time>
      </trkpt>
      <trkpt lat="42.83387" lon="0.87887">
        <ele>1891.0505371094</ele>
        <time>2019-05-26T12:12:56Z</time>
      </trkpt>
      <trkpt lat="42.83383" lon="0.87886">
        <ele>1891.0505371094</ele>
        <time>2019-05-26T12:12:57Z</time>
      </trkpt>
      <trkpt lat="42.8338" lon="0.87886">
        <ele>1894.4150390625</ele>
        <time>2019-05-26T12:13:12Z</time>
      </trkpt>
      <trkpt lat="42.83373" lon="0.87889">
        <ele>1897.7797851562</ele>
        <time>2019-05-26T12:13:25Z</time>
      </trkpt>
      <trkpt lat="42.83367" lon="0.87887">
        <ele>1899.2216796875</ele>
        <time>2019-05-26T12:13:31Z</time>
      </trkpt>
      <trkpt lat="42.83359" lon="0.87886">
        <ele>1900.1833496094</ele>
        <time>2019-05-26T12:13:39Z</time>
      </trkpt>
      <trkpt lat="42.83353" lon="0.87896">
        <ele>1902.5864257812</ele>
        <time>2019-05-26T12:13:51Z</time>
      </trkpt>
      <trkpt lat="42.83352" lon="0.879">
        <ele>1903.0671386719</ele>
        <time>2019-05-26T12:13:55Z</time>
      </trkpt>
      <trkpt lat="42.83361" lon="0.87908">
        <ele>1905.9509277344</ele>
        <time>2019-05-26T12:14:08Z</time>
      </trkpt>
      <trkpt lat="42.83364" lon="0.8791">
        <ele>1905.9509277344</ele>
        <time>2019-05-26T12:14:12Z</time>
      </trkpt>
      <trkpt lat="42.83374" lon="0.87915">
        <ele>1906.431640625</ele>
        <time>2019-05-26T12:14:18Z</time>
      </trkpt>
      <trkpt lat="42.83385" lon="0.87924">
        <ele>1908.8349609375</ele>
        <time>2019-05-26T12:14:35Z</time>
      </trkpt>
      <trkpt lat="42.83386" lon="0.87934">
        <ele>1909.3156738281</ele>
        <time>2019-05-26T12:14:38Z</time>
      </trkpt>
      <trkpt lat="42.83382" lon="0.87935">
        <ele>1909.7961425781</ele>
        <time>2019-05-26T12:14:51Z</time>
      </trkpt>
      <trkpt lat="42.8338" lon="0.8794">
        <ele>1909.3156738281</ele>
        <time>2019-05-26T12:15:05Z</time>
      </trkpt>
      <trkpt lat="42.83378" lon="0.87942">
        <ele>1910.2768554688</ele>
        <time>2019-05-26T12:15:25Z</time>
      </trkpt>
      <trkpt lat="42.83377" lon="0.87943">
        <ele>1910.2768554688</ele>
        <time>2019-05-26T12:15:33Z</time>
      </trkpt>
      <trkpt lat="42.83375" lon="0.87942">
        <ele>1909.7961425781</ele>
        <time>2019-05-26T12:15:45Z</time>
      </trkpt>
      <trkpt lat="42.83373" lon="0.8794">
        <ele>1909.7961425781</ele>
        <time>2019-05-26T12:15:54Z</time>
      </trkpt>
      <trkpt lat="42.8337" lon="0.87941">
        <ele>1913.6413574219</ele>
        <time>2019-05-26T12:16:07Z</time>
      </trkpt>
      <trkpt lat="42.83357" lon="0.87941">
        <ele>1916.5256347656</ele>
        <time>2019-05-26T12:16:22Z</time>
      </trkpt>
      <trkpt lat="42.83352" lon="0.87942">
        <ele>1916.5256347656</ele>
        <time>2019-05-26T12:16:27Z</time>
      </trkpt>
      <trkpt lat="42.83349" lon="0.87953">
        <ele>1916.5256347656</ele>
        <time>2019-05-26T12:16:33Z</time>
      </trkpt>
      <trkpt lat="42.83347" lon="0.87969">
        <ele>1920.3708496094</ele>
        <time>2019-05-26T12:16:45Z</time>
      </trkpt>
      <trkpt lat="42.8334" lon="0.87977">
        <ele>1923.7353515625</ele>
        <time>2019-05-26T12:17:01Z</time>
      </trkpt>
      <trkpt lat="42.83341" lon="0.8799">
        <ele>1927.1000976562</ele>
        <time>2019-05-26T12:17:16Z</time>
      </trkpt>
      <trkpt lat="42.8334" lon="0.8799">
        <ele>1927.1000976562</ele>
        <time>2019-05-26T12:17:17Z</time>
      </trkpt>
      <trkpt lat="42.8333" lon="0.87986">
        <ele>1929.9838867188</ele>
        <time>2019-05-26T12:17:32Z</time>
      </trkpt>
      <trkpt lat="42.83322" lon="0.87979">
        <ele>1933.3486328125</ele>
        <time>2019-05-26T12:17:46Z</time>
      </trkpt>
      <trkpt lat="42.83324" lon="0.87989">
        <ele>1936.7131347656</ele>
        <time>2019-05-26T12:18:02Z</time>
      </trkpt>
      <trkpt lat="42.83323" lon="0.87998">
        <ele>1940.0778808594</ele>
        <time>2019-05-26T12:18:17Z</time>
      </trkpt>
      <trkpt lat="42.83323" lon="0.88003">
        <ele>1941.5197753906</ele>
        <time>2019-05-26T12:18:26Z</time>
      </trkpt>
      <trkpt lat="42.83323" lon="0.88007">
        <ele>1942.4812011719</ele>
        <time>2019-05-26T12:18:31Z</time>
      </trkpt>
      <trkpt lat="42.8332" lon="0.88016">
        <ele>1945.845703125</ele>
        <time>2019-05-26T12:18:45Z</time>
      </trkpt>
      <trkpt lat="42.83314" lon="0.88016">
        <ele>1948.7297363281</ele>
        <time>2019-05-26T12:18:57Z</time>
      </trkpt>
      <trkpt lat="42.83314" lon="0.88016">
        <ele>1948.7297363281</ele>
        <time>2019-05-26T12:18:58Z</time>
      </trkpt>
      <trkpt lat="42.83315" lon="0.88026">
        <ele>1951.1330566406</ele>
        <time>2019-05-26T12:19:17Z</time>
      </trkpt>
      <trkpt lat="42.8331" lon="0.88029">
        <ele>1954.4975585938</ele>
        <time>2019-05-26T12:19:28Z</time>
      </trkpt>
      <trkpt lat="42.83308" lon="0.88027">
        <ele>1954.9782714844</ele>
        <time>2019-05-26T12:19:32Z</time>
      </trkpt>
      <trkpt lat="42.83301" lon="0.88022">
        <ele>1958.3427734375</ele>
        <time>2019-05-26T12:19:45Z</time>
      </trkpt>
      <trkpt lat="42.83296" lon="0.88013">
        <ele>1959.7846679688</ele>
        <time>2019-05-26T12:19:59Z</time>
      </trkpt>
      <trkpt lat="42.83292" lon="0.88013">
        <ele>1961.7075195312</ele>
        <time>2019-05-26T12:20:09Z</time>
      </trkpt>
      <trkpt lat="42.83292" lon="0.88015">
        <ele>1963.1494140625</ele>
        <time>2019-05-26T12:20:12Z</time>
      </trkpt>
      <trkpt lat="42.83294" lon="0.88027">
        <ele>1965.072265625</ele>
        <time>2019-05-26T12:20:27Z</time>
      </trkpt>
      <trkpt lat="42.83295" lon="0.88035">
        <ele>1966.9948730469</ele>
        <time>2019-05-26T12:20:34Z</time>
      </trkpt>
      <trkpt lat="42.833" lon="0.88046">
        <ele>1967.9560546875</ele>
        <time>2019-05-26T12:20:47Z</time>
      </trkpt>
      <trkpt lat="42.83301" lon="0.88052">
        <ele>1971.3205566406</ele>
        <time>2019-05-26T12:20:57Z</time>
      </trkpt>
      <trkpt lat="42.83299" lon="0.88067">
        <ele>1974.6853027344</ele>
        <time>2019-05-26T12:21:13Z</time>
      </trkpt>
      <trkpt lat="42.83296" lon="0.88079">
        <ele>1975.1657714844</ele>
        <time>2019-05-26T12:21:29Z</time>
      </trkpt>
      <trkpt lat="42.83289" lon="0.88088">
        <ele>1974.2045898438</ele>
        <time>2019-05-26T12:21:37Z</time>
      </trkpt>
      <trkpt lat="42.83286" lon="0.88092">
        <ele>1974.2045898438</ele>
        <time>2019-05-26T12:21:41Z</time>
      </trkpt>
      <trkpt lat="42.83278" lon="0.88126">
        <ele>1975.1657714844</ele>
        <time>2019-05-26T12:22:03Z</time>
      </trkpt>
      <trkpt lat="42.83277" lon="0.88149">
        <ele>1978.5305175781</ele>
        <time>2019-05-26T12:22:20Z</time>
      </trkpt>
      <trkpt lat="42.83276" lon="0.88167">
        <ele>1981.4145507812</ele>
        <time>2019-05-26T12:22:34Z</time>
      </trkpt>
      <trkpt lat="42.83272" lon="0.8818">
        <ele>1983.8178710938</ele>
        <time>2019-05-26T12:22:46Z</time>
      </trkpt>
      <trkpt lat="42.83256" lon="0.88205">
        <ele>1986.2211914062</ele>
        <time>2019-05-26T12:23:08Z</time>
      </trkpt>
      <trkpt lat="42.83236" lon="0.88217">
        <ele>1986.2211914062</ele>
        <time>2019-05-26T12:23:28Z</time>
      </trkpt>
      <trkpt lat="42.83221" lon="0.88244">
        <ele>1986.7016601562</ele>
        <time>2019-05-26T12:23:48Z</time>
      </trkpt>
      <trkpt lat="42.8322" lon="0.88262">
        <ele>1988.6245117188</ele>
        <time>2019-05-26T12:23:59Z</time>
      </trkpt>
      <trkpt lat="42.83223" lon="0.88272">
        <ele>1989.5856933594</ele>
        <time>2019-05-26T12:24:07Z</time>
      </trkpt>
      <trkpt lat="42.83215" lon="0.88287">
        <ele>1992.4697265625</ele>
        <time>2019-05-26T12:24:21Z</time>
      </trkpt>
      <trkpt lat="42.83209" lon="0.88302">
        <ele>1995.8342285156</ele>
        <time>2019-05-26T12:24:36Z</time>
      </trkpt>
      <trkpt lat="42.83202" lon="0.88309">
        <ele>1998.7182617188</ele>
        <time>2019-05-26T12:24:46Z</time>
      </trkpt>
      <trkpt lat="42.83198" lon="0.88321">
        <ele>2000.6408691406</ele>
        <time>2019-05-26T12:25:03Z</time>
      </trkpt>
      <trkpt lat="42.83196" lon="0.88334">
        <ele>2003.0441894531</ele>
        <time>2019-05-26T12:25:21Z</time>
      </trkpt>
      <trkpt lat="42.83185" lon="0.88338">
        <ele>2006.4086914062</ele>
        <time>2019-05-26T12:25:40Z</time>
      </trkpt>
      <trkpt lat="42.83176" lon="0.88336">
        <ele>2009.7731933594</ele>
        <time>2019-05-26T12:26:00Z</time>
      </trkpt>
      <trkpt lat="42.83169" lon="0.88334">
        <ele>2011.6960449219</ele>
        <time>2019-05-26T12:26:11Z</time>
      </trkpt>
      <trkpt lat="42.83153" lon="0.88338">
        <ele>2014.580078125</ele>
        <time>2019-05-26T12:26:35Z</time>
      </trkpt>
      <trkpt lat="42.8314" lon="0.88338">
        <ele>2017.4638671875</ele>
        <time>2019-05-26T12:26:56Z</time>
      </trkpt>
      <trkpt lat="42.83131" lon="0.88336">
        <ele>2020.8286132812</ele>
        <time>2019-05-26T12:27:07Z</time>
      </trkpt>
      <trkpt lat="42.83128" lon="0.88337">
        <ele>2019.38671875</ele>
        <time>2019-05-26T12:27:41Z</time>
      </trkpt>
      <trkpt lat="42.83125" lon="0.88336">
        <ele>2022.2705078125</ele>
        <time>2019-05-26T12:35:53Z</time>
      </trkpt>
      <trkpt lat="42.83123" lon="0.88334">
        <ele>2023.2319335938</ele>
        <time>2019-05-26T12:35:55Z</time>
      </trkpt>
      <trkpt lat="42.83115" lon="0.88333">
        <ele>2024.1931152344</ele>
        <time>2019-05-26T12:36:00Z</time>
      </trkpt>
      <trkpt lat="42.83111" lon="0.88332">
        <ele>2026.1157226562</ele>
        <time>2019-05-26T12:36:04Z</time>
      </trkpt>
      <trkpt lat="42.83099" lon="0.88332">
        <ele>2029.48046875</ele>
        <time>2019-05-26T12:36:16Z</time>
      </trkpt>
      <trkpt lat="42.83088" lon="0.88328">
        <ele>2032.3645019531</ele>
        <time>2019-05-26T12:36:36Z</time>
      </trkpt>
      <trkpt lat="42.83082" lon="0.88322">
        <ele>2034.287109375</ele>
        <time>2019-05-26T12:36:45Z</time>
      </trkpt>
      <trkpt lat="42.8307" lon="0.88307">
        <ele>2036.2097167969</ele>
        <time>2019-05-26T12:37:01Z</time>
      </trkpt>
      <trkpt lat="42.83067" lon="0.88305">
        <ele>2038.1323242188</ele>
        <time>2019-05-26T12:37:06Z</time>
      </trkpt>
      <trkpt lat="42.8306" lon="0.88307">
        <ele>2040.5354003906</ele>
        <time>2019-05-26T12:37:21Z</time>
      </trkpt>
      <trkpt lat="42.83049" lon="0.88305">
        <ele>2043.9001464844</ele>
        <time>2019-05-26T12:37:43Z</time>
      </trkpt>
      <trkpt lat="42.83046" lon="0.88306">
        <ele>2044.8615722656</ele>
        <time>2019-05-26T12:37:47Z</time>
      </trkpt>
      <trkpt lat="42.83043" lon="0.88311">
        <ele>2048.2260742188</ele>
        <time>2019-05-26T12:37:54Z</time>
      </trkpt>
      <trkpt lat="42.8304" lon="0.88328">
        <ele>2051.1101074219</ele>
        <time>2019-05-26T12:38:15Z</time>
      </trkpt>
      <trkpt lat="42.83031" lon="0.88339">
        <ele>2054.474609375</ele>
        <time>2019-05-26T12:38:31Z</time>
      </trkpt>
      <trkpt lat="42.83024" lon="0.88349">
        <ele>2057.8393554688</ele>
        <time>2019-05-26T12:38:47Z</time>
      </trkpt>
      <trkpt lat="42.83024" lon="0.88355">
        <ele>2058.8005371094</ele>
        <time>2019-05-26T12:39:05Z</time>
      </trkpt>
      <trkpt lat="42.83019" lon="0.88368">
        <ele>2061.2041015625</ele>
        <time>2019-05-26T12:39:37Z</time>
      </trkpt>
      <trkpt lat="42.83012" lon="0.88383">
        <ele>2064.5686035156</ele>
        <time>2019-05-26T12:39:52Z</time>
      </trkpt>
      <trkpt lat="42.83011" lon="0.88386">
        <ele>2064.5686035156</ele>
        <time>2019-05-26T12:39:55Z</time>
      </trkpt>
      <trkpt lat="42.83004" lon="0.88388">
        <ele>2067.4523925781</ele>
        <time>2019-05-26T12:40:09Z</time>
      </trkpt>
      <trkpt lat="42.83" lon="0.88396">
        <ele>2070.3364257812</ele>
        <time>2019-05-26T12:40:22Z</time>
      </trkpt>
      <trkpt lat="42.83" lon="0.88397">
        <ele>2070.8171386719</ele>
        <time>2019-05-26T12:40:23Z</time>
      </trkpt>
      <trkpt lat="42.83001" lon="0.88413">
        <ele>2072.7397460938</ele>
        <time>2019-05-26T12:40:38Z</time>
      </trkpt>
      <trkpt lat="42.82999" lon="0.88428">
        <ele>2074.6623535156</ele>
        <time>2019-05-26T12:40:54Z</time>
      </trkpt>
      <trkpt lat="42.82997" lon="0.88437">
        <ele>2077.5463867188</ele>
        <time>2019-05-26T12:41:03Z</time>
      </trkpt>
      <trkpt lat="42.82992" lon="0.88449">
        <ele>2079.9497070312</ele>
        <time>2019-05-26T12:41:19Z</time>
      </trkpt>
      <trkpt lat="42.82989" lon="0.88457">
        <ele>2081.8723144531</ele>
        <time>2019-05-26T12:41:27Z</time>
      </trkpt>
      <trkpt lat="42.82989" lon="0.88462">
        <ele>2083.794921875</ele>
        <time>2019-05-26T12:41:33Z</time>
      </trkpt>
      <trkpt lat="42.82984" lon="0.88473">
        <ele>2086.6787109375</ele>
        <time>2019-05-26T12:41:47Z</time>
      </trkpt>
      <trkpt lat="42.8298" lon="0.88482">
        <ele>2090.0434570312</ele>
        <time>2019-05-26T12:41:59Z</time>
      </trkpt>
      <trkpt lat="42.8298" lon="0.88483">
        <ele>2090.0434570312</ele>
        <time>2019-05-26T12:42:00Z</time>
      </trkpt>
      <trkpt lat="42.82973" lon="0.88484">
        <ele>2093.408203125</ele>
        <time>2019-05-26T12:42:15Z</time>
      </trkpt>
      <trkpt lat="42.82962" lon="0.88476">
        <ele>2095.3308105469</ele>
        <time>2019-05-26T12:42:32Z</time>
      </trkpt>
      <trkpt lat="42.82956" lon="0.88474">
        <ele>2098.2145996094</ele>
        <time>2019-05-26T12:42:51Z</time>
      </trkpt>
      <trkpt lat="42.82941" lon="0.88461">
        <ele>2101.5793457031</ele>
        <time>2019-05-26T12:43:11Z</time>
      </trkpt>
      <trkpt lat="42.82938" lon="0.88473">
        <ele>2103.9826660156</ele>
        <time>2019-05-26T12:43:35Z</time>
      </trkpt>
      <trkpt lat="42.82936" lon="0.88491">
        <ele>2106.3857421875</ele>
        <time>2019-05-26T12:44:00Z</time>
      </trkpt>
      <trkpt lat="42.8293" lon="0.88506">
        <ele>2109.7504882812</ele>
        <time>2019-05-26T12:44:18Z</time>
      </trkpt>
      <trkpt lat="42.82925" lon="0.88521">
        <ele>2113.115234375</ele>
        <time>2019-05-26T12:44:41Z</time>
      </trkpt>
      <trkpt lat="42.82918" lon="0.88525">
        <ele>2116.4797363281</ele>
        <time>2019-05-26T12:45:09Z</time>
      </trkpt>
      <trkpt lat="42.82908" lon="0.88523">
        <ele>2119.3637695312</ele>
        <time>2019-05-26T12:45:31Z</time>
      </trkpt>
      <trkpt lat="42.829" lon="0.88527">
        <ele>2122.7282714844</ele>
        <time>2019-05-26T12:45:57Z</time>
      </trkpt>
      <trkpt lat="42.82894" lon="0.8853">
        <ele>2123.689453125</ele>
        <time>2019-05-26T12:46:18Z</time>
      </trkpt>
      <trkpt lat="42.82889" lon="0.88536">
        <ele>2125.1315917969</ele>
        <time>2019-05-26T12:46:35Z</time>
      </trkpt>
      <trkpt lat="42.82883" lon="0.88548">
        <ele>2126.5737304688</ele>
        <time>2019-05-26T12:46:54Z</time>
      </trkpt>
      <trkpt lat="42.82877" lon="0.88551">
        <ele>2128.4963378906</ele>
        <time>2019-05-26T12:47:16Z</time>
      </trkpt>
      <trkpt lat="42.82872" lon="0.88556">
        <ele>2131.3801269531</ele>
        <time>2019-05-26T12:47:33Z</time>
      </trkpt>
      <trkpt lat="42.82866" lon="0.88564">
        <ele>2134.7448730469</ele>
        <time>2019-05-26T12:47:57Z</time>
      </trkpt>
      <trkpt lat="42.82865" lon="0.88573">
        <ele>2138.5900878906</ele>
        <time>2019-05-26T12:48:17Z</time>
      </trkpt>
      <trkpt lat="42.82866" lon="0.88584">
        <ele>2139.5512695312</ele>
        <time>2019-05-26T12:48:33Z</time>
      </trkpt>
      <trkpt lat="42.82864" lon="0.88589">
        <ele>2140.0322265625</ele>
        <time>2019-05-26T12:48:35Z</time>
      </trkpt>
      <trkpt lat="42.82859" lon="0.88596">
        <ele>2130.4189453125</ele>
        <time>2019-05-26T12:51:23Z</time>
      </trkpt>
      <trkpt lat="42.82862" lon="0.88629">
        <ele>2131.8608398438</ele>
        <time>2019-05-26T12:51:54Z</time>
      </trkpt>
      <trkpt lat="42.82857" lon="0.88643">
        <ele>2134.7448730469</ele>
        <time>2019-05-26T12:52:15Z</time>
      </trkpt>
      <trkpt lat="42.82858" lon="0.88649">
        <ele>2135.7060546875</ele>
        <time>2019-05-26T12:52:33Z</time>
      </trkpt>
      <trkpt lat="42.8286" lon="0.88657">
        <ele>2136.6672363281</ele>
        <time>2019-05-26T12:52:53Z</time>
      </trkpt>
      <trkpt lat="42.8286" lon="0.88666">
        <ele>2137.1479492188</ele>
        <time>2019-05-26T12:53:13Z</time>
      </trkpt>
      <trkpt lat="42.82863" lon="0.88674">
        <ele>2139.0705566406</ele>
        <time>2019-05-26T12:53:30Z</time>
      </trkpt>
      <trkpt lat="42.82865" lon="0.88685">
        <ele>2141.9548339844</ele>
        <time>2019-05-26T12:53:44Z</time>
      </trkpt>
      <trkpt lat="42.82866" lon="0.8869">
        <ele>2143.3967285156</ele>
        <time>2019-05-26T12:53:55Z</time>
      </trkpt>
      <trkpt lat="42.82868" lon="0.88707">
        <ele>2146.7612304688</ele>
        <time>2019-05-26T12:54:13Z</time>
      </trkpt>
      <trkpt lat="42.8287" lon="0.88714">
        <ele>2148.203125</ele>
        <time>2019-05-26T12:54:21Z</time>
      </trkpt>
      <trkpt lat="42.82871" lon="0.88725">
        <ele>2151.5678710938</ele>
        <time>2019-05-26T12:54:34Z</time>
      </trkpt>
      <trkpt lat="42.82869" lon="0.88735">
        <ele>2154.4516601562</ele>
        <time>2019-05-26T12:54:48Z</time>
      </trkpt>
      <trkpt lat="42.82867" lon="0.8875">
        <ele>2157.8166503906</ele>
        <time>2019-05-26T12:55:04Z</time>
      </trkpt>
      <trkpt lat="42.82865" lon="0.88766">
        <ele>2160.7004394531</ele>
        <time>2019-05-26T12:55:22Z</time>
      </trkpt>
      <trkpt lat="42.82861" lon="0.88776">
        <ele>2164.0649414062</ele>
        <time>2019-05-26T12:55:36Z</time>
      </trkpt>
      <trkpt lat="42.82859" lon="0.88779">
        <ele>2164.5456542969</ele>
        <time>2019-05-26T12:55:59Z</time>
      </trkpt>
      <trkpt lat="42.82859" lon="0.88783">
        <ele>2165.0263671875</ele>
        <time>2019-05-26T12:56:20Z</time>
      </trkpt>
      <trkpt lat="42.82857" lon="0.88787">
        <ele>2165.5070800781</ele>
        <time>2019-05-26T12:56:46Z</time>
      </trkpt>
      <trkpt lat="42.82855" lon="0.88794">
        <ele>2167.4294433594</ele>
        <time>2019-05-26T12:57:04Z</time>
      </trkpt>
      <trkpt lat="42.82854" lon="0.88799">
        <ele>2168.3908691406</ele>
        <time>2019-05-26T12:57:20Z</time>
      </trkpt>
      <trkpt lat="42.82855" lon="0.88807">
        <ele>2169.3522949219</ele>
        <time>2019-05-26T12:57:39Z</time>
      </trkpt>
      <trkpt lat="42.82855" lon="0.88811">
        <ele>2169.8327636719</ele>
        <time>2019-05-26T12:58:01Z</time>
      </trkpt>
      <trkpt lat="42.82849" lon="0.88815">
        <ele>2173.1977539062</ele>
        <time>2019-05-26T12:58:16Z</time>
      </trkpt>
      <trkpt lat="42.82845" lon="0.88821">
        <ele>2175.6008300781</ele>
        <time>2019-05-26T12:58:38Z</time>
      </trkpt>
      <trkpt lat="42.82842" lon="0.88825">
        <ele>2177.5234375</ele>
        <time>2019-05-26T12:58:59Z</time>
      </trkpt>
      <trkpt lat="42.82838" lon="0.88832">
        <ele>2178.9653320312</ele>
        <time>2019-05-26T12:59:32Z</time>
      </trkpt>
      <trkpt lat="42.82833" lon="0.88842">
        <ele>2182.330078125</ele>
        <time>2019-05-26T12:59:47Z</time>
      </trkpt>
      <trkpt lat="42.82832" lon="0.88842">
        <ele>2182.330078125</ele>
        <time>2019-05-26T12:59:48Z</time>
      </trkpt>
      <trkpt lat="42.8283" lon="0.88853">
        <ele>2185.6945800781</ele>
        <time>2019-05-26T13:00:04Z</time>
      </trkpt>
      <trkpt lat="42.8283" lon="0.88861">
        <ele>2188.0981445312</ele>
        <time>2019-05-26T13:00:12Z</time>
      </trkpt>
      <trkpt lat="42.82824" lon="0.88866">
        <ele>2190.9819335938</ele>
        <time>2019-05-26T13:00:31Z</time>
      </trkpt>
      <trkpt lat="42.82816" lon="0.88863">
        <ele>2193.8659667969</ele>
        <time>2019-05-26T13:00:48Z</time>
      </trkpt>
      <trkpt lat="42.8281" lon="0.88866">
        <ele>2197.23046875</ele>
        <time>2019-05-26T13:01:02Z</time>
      </trkpt>
      <trkpt lat="42.82808" lon="0.88875">
        <ele>2200.5949707031</ele>
        <time>2019-05-26T13:01:19Z</time>
      </trkpt>
      <trkpt lat="42.82809" lon="0.88888">
        <ele>2203.4790039062</ele>
        <time>2019-05-26T13:01:39Z</time>
      </trkpt>
      <trkpt lat="42.82801" lon="0.88887">
        <ele>2205.8823242188</ele>
        <time>2019-05-26T13:02:00Z</time>
      </trkpt>
      <trkpt lat="42.82795" lon="0.88889">
        <ele>2209.2470703125</ele>
        <time>2019-05-26T13:02:14Z</time>
      </trkpt>
      <trkpt lat="42.82787" lon="0.88886">
        <ele>2212.130859375</ele>
        <time>2019-05-26T13:02:33Z</time>
      </trkpt>
      <trkpt lat="42.82781" lon="0.88877">
        <ele>2214.5341796875</ele>
        <time>2019-05-26T13:02:49Z</time>
      </trkpt>
      <trkpt lat="42.8278" lon="0.88888">
        <ele>2217.41796875</ele>
        <time>2019-05-26T13:03:08Z</time>
      </trkpt>
      <trkpt lat="42.82777" lon="0.88906">
        <ele>2220.7829589844</ele>
        <time>2019-05-26T13:03:27Z</time>
      </trkpt>
      <trkpt lat="42.8277" lon="0.88907">
        <ele>2223.6667480469</ele>
        <time>2019-05-26T13:03:39Z</time>
      </trkpt>
      <trkpt lat="42.82766" lon="0.88902">
        <ele>2223.6667480469</ele>
        <time>2019-05-26T13:03:53Z</time>
      </trkpt>
      <trkpt lat="42.82762" lon="0.88891">
        <ele>2225.1086425781</ele>
        <time>2019-05-26T13:04:10Z</time>
      </trkpt>
      <trkpt lat="42.82756" lon="0.88882">
        <ele>2227.5119628906</ele>
        <time>2019-05-26T13:04:25Z</time>
      </trkpt>
      <trkpt lat="42.82749" lon="0.88872">
        <ele>2231.3571777344</ele>
        <time>2019-05-26T13:04:40Z</time>
      </trkpt>
      <trkpt lat="42.82743" lon="0.88853">
        <ele>2233.7604980469</ele>
        <time>2019-05-26T13:05:00Z</time>
      </trkpt>
      <trkpt lat="42.82737" lon="0.88838">
        <ele>2236.64453125</ele>
        <time>2019-05-26T13:05:14Z</time>
      </trkpt>
      <trkpt lat="42.82736" lon="0.88836">
        <ele>2237.1252441406</ele>
        <time>2019-05-26T13:05:16Z</time>
      </trkpt>
      <trkpt lat="42.82728" lon="0.88813">
        <ele>2239.5285644531</ele>
        <time>2019-05-26T13:05:33Z</time>
      </trkpt>
      <trkpt lat="42.82725" lon="0.88805">
        <ele>2239.0478515625</ele>
        <time>2019-05-26T13:05:39Z</time>
      </trkpt>
      <trkpt lat="42.82719" lon="0.88795">
        <ele>2240.4897460938</ele>
        <time>2019-05-26T13:05:48Z</time>
      </trkpt>
      <trkpt lat="42.82714" lon="0.88787">
        <ele>2242.4125976562</ele>
        <time>2019-05-26T13:05:55Z</time>
      </trkpt>
      <trkpt lat="42.82702" lon="0.88786">
        <ele>2243.8544921875</ele>
        <time>2019-05-26T13:06:09Z</time>
      </trkpt>
      <trkpt lat="42.82698" lon="0.88778">
        <ele>2242.4125976562</ele>
        <time>2019-05-26T13:06:26Z</time>
      </trkpt>
      <trkpt lat="42.82694" lon="0.88776">
        <ele>2241.451171875</ele>
        <time>2019-05-26T13:06:32Z</time>
      </trkpt>
      <trkpt lat="42.82679" lon="0.88763">
        <ele>2238.0866699219</ele>
        <time>2019-05-26T13:06:49Z</time>
      </trkpt>
      <trkpt lat="42.82676" lon="0.88762">
        <ele>2237.1252441406</ele>
        <time>2019-05-26T13:06:53Z</time>
      </trkpt>
      <trkpt lat="42.82662" lon="0.88764">
        <ele>2233.7604980469</ele>
        <time>2019-05-26T13:07:08Z</time>
      </trkpt>
      <trkpt lat="42.82663" lon="0.88761">
        <ele>2234.2412109375</ele>
        <time>2019-05-26T13:07:22Z</time>
      </trkpt>
      <trkpt lat="42.82671" lon="0.88785">
        <ele>2230.8767089844</ele>
        <time>2019-05-26T13:07:39Z</time>
      </trkpt>
      <trkpt lat="42.82673" lon="0.88792">
        <ele>2229.9152832031</ele>
        <time>2019-05-26T13:07:43Z</time>
      </trkpt>
      <trkpt lat="42.82679" lon="0.88809">
        <ele>2227.0314941406</ele>
        <time>2019-05-26T13:07:56Z</time>
      </trkpt>
      <trkpt lat="42.82685" lon="0.88824">
        <ele>2225.5893554688</ele>
        <time>2019-05-26T13:08:09Z</time>
      </trkpt>
      <trkpt lat="42.82689" lon="0.88841">
        <ele>2222.7055664062</ele>
        <time>2019-05-26T13:08:21Z</time>
      </trkpt>
      <trkpt lat="42.82698" lon="0.88861">
        <ele>2221.2634277344</ele>
        <time>2019-05-26T13:08:37Z</time>
      </trkpt>
      <trkpt lat="42.82708" lon="0.8888">
        <ele>2221.2634277344</ele>
        <time>2019-05-26T13:08:51Z</time>
      </trkpt>
      <trkpt lat="42.8271" lon="0.88883">
        <ele>2220.3022460938</ele>
        <time>2019-05-26T13:08:53Z</time>
      </trkpt>
      <trkpt lat="42.827" lon="0.8888">
        <ele>2217.8986816406</ele>
        <time>2019-05-26T13:09:02Z</time>
      </trkpt>
      <trkpt lat="42.82687" lon="0.88876">
        <ele>2214.0534667969</ele>
        <time>2019-05-26T13:09:11Z</time>
      </trkpt>
      <trkpt lat="42.82685" lon="0.88876">
        <ele>2214.0534667969</ele>
        <time>2019-05-26T13:09:12Z</time>
      </trkpt>
      <trkpt lat="42.82677" lon="0.88876">
        <ele>2213.0922851562</ele>
        <time>2019-05-26T13:09:16Z</time>
      </trkpt>
      <trkpt lat="42.82671" lon="0.88875">
        <ele>2211.650390625</ele>
        <time>2019-05-26T13:09:21Z</time>
      </trkpt>
      <trkpt lat="42.82667" lon="0.88877">
        <ele>2210.6889648438</ele>
        <time>2019-05-26T13:09:25Z</time>
      </trkpt>
      <trkpt lat="42.82663" lon="0.88879">
        <ele>2210.2082519531</ele>
        <time>2019-05-26T13:09:29Z</time>
      </trkpt>
      <trkpt lat="42.82654" lon="0.88883">
        <ele>2206.84375</ele>
        <time>2019-05-26T13:09:40Z</time>
      </trkpt>
      <trkpt lat="42.82648" lon="0.88889">
        <ele>2203.9597167969</ele>
        <time>2019-05-26T13:09:55Z</time>
      </trkpt>
      <trkpt lat="42.82646" lon="0.88889">
        <ele>2203.4790039062</ele>
        <time>2019-05-26T13:09:57Z</time>
      </trkpt>
      <trkpt lat="42.82642" lon="0.88892">
        <ele>2202.517578125</ele>
        <time>2019-05-26T13:10:01Z</time>
      </trkpt>
      <trkpt lat="42.82636" lon="0.88898">
        <ele>2200.1145019531</ele>
        <time>2019-05-26T13:10:09Z</time>
      </trkpt>
      <trkpt lat="42.82634" lon="0.88901">
        <ele>2199.6337890625</ele>
        <time>2019-05-26T13:10:13Z</time>
      </trkpt>
      <trkpt lat="42.82628" lon="0.88904">
        <ele>2198.1916503906</ele>
        <time>2019-05-26T13:10:18Z</time>
      </trkpt>
      <trkpt lat="42.8262" lon="0.88917">
        <ele>2194.3464355469</ele>
        <time>2019-05-26T13:10:31Z</time>
      </trkpt>
      <trkpt lat="42.82617" lon="0.88926">
        <ele>2192.9045410156</ele>
        <time>2019-05-26T13:10:41Z</time>
      </trkpt>
      <trkpt lat="42.82623" lon="0.88929">
        <ele>2190.9819335938</ele>
        <time>2019-05-26T13:10:51Z</time>
      </trkpt>
      <trkpt lat="42.82625" lon="0.8894">
        <ele>2189.0593261719</ele>
        <time>2019-05-26T13:11:07Z</time>
      </trkpt>
      <trkpt lat="42.82625" lon="0.88948">
        <ele>2186.1752929688</ele>
        <time>2019-05-26T13:11:19Z</time>
      </trkpt>
      <trkpt lat="42.8262" lon="0.88958">
        <ele>2182.810546875</ele>
        <time>2019-05-26T13:11:38Z</time>
      </trkpt>
      <trkpt lat="42.82624" lon="0.88961">
        <ele>2179.9267578125</ele>
        <time>2019-05-26T13:11:53Z</time>
      </trkpt>
      <trkpt lat="42.82621" lon="0.88977">
        <ele>2176.5622558594</ele>
        <time>2019-05-26T13:12:07Z</time>
      </trkpt>
      <trkpt lat="42.8262" lon="0.88988">
        <ele>2175.6008300781</ele>
        <time>2019-05-26T13:12:25Z</time>
      </trkpt>
      <trkpt lat="42.82618" lon="0.8899">
        <ele>2173.1977539062</ele>
        <time>2019-05-26T13:13:03Z</time>
      </trkpt>
      <trkpt lat="42.82614" lon="0.88992">
        <ele>2172.236328125</ele>
        <time>2019-05-26T13:13:07Z</time>
      </trkpt>
      <trkpt lat="42.82603" lon="0.89011">
        <ele>2169.3522949219</ele>
        <time>2019-05-26T13:13:23Z</time>
      </trkpt>
      <trkpt lat="42.82599" lon="0.89021">
        <ele>2167.91015625</ele>
        <time>2019-05-26T13:13:38Z</time>
      </trkpt>
      <trkpt lat="42.82594" lon="0.89032">
        <ele>2165.0263671875</ele>
        <time>2019-05-26T13:13:53Z</time>
      </trkpt>
      <trkpt lat="42.82593" lon="0.89037">
        <ele>2163.5842285156</ele>
        <time>2019-05-26T13:14:00Z</time>
      </trkpt>
      <trkpt lat="42.82598" lon="0.89042">
        <ele>2161.6618652344</ele>
        <time>2019-05-26T13:14:10Z</time>
      </trkpt>
      <trkpt lat="42.82597" lon="0.89056">
        <ele>2158.7778320312</ele>
        <time>2019-05-26T13:14:21Z</time>
      </trkpt>
      <trkpt lat="42.82594" lon="0.89068">
        <ele>2155.8935546875</ele>
        <time>2019-05-26T13:14:36Z</time>
      </trkpt>
      <trkpt lat="42.82594" lon="0.8908">
        <ele>2152.5290527344</ele>
        <time>2019-05-26T13:14:44Z</time>
      </trkpt>
      <trkpt lat="42.82594" lon="0.89081">
        <ele>2152.5290527344</ele>
        <time>2019-05-26T13:14:45Z</time>
      </trkpt>
      <trkpt lat="42.82597" lon="0.89098">
        <ele>2149.6452636719</ele>
        <time>2019-05-26T13:14:58Z</time>
      </trkpt>
      <trkpt lat="42.82605" lon="0.89098">
        <ele>2148.6838378906</ele>
        <time>2019-05-26T13:15:04Z</time>
      </trkpt>
      <trkpt lat="42.82609" lon="0.89101">
        <ele>2148.203125</ele>
        <time>2019-05-26T13:15:06Z</time>
      </trkpt>
      <trkpt lat="42.82611" lon="0.89109">
        <ele>2147.2419433594</ele>
        <time>2019-05-26T13:15:08Z</time>
      </trkpt>
      <trkpt lat="42.82615" lon="0.89117">
        <ele>2144.8386230469</ele>
        <time>2019-05-26T13:15:15Z</time>
      </trkpt>
      <trkpt lat="42.82617" lon="0.89127">
        <ele>2144.3579101562</ele>
        <time>2019-05-26T13:15:19Z</time>
      </trkpt>
      <trkpt lat="42.82619" lon="0.8914">
        <ele>2141.9548339844</ele>
        <time>2019-05-26T13:15:24Z</time>
      </trkpt>
      <trkpt lat="42.82622" lon="0.8915">
        <ele>2140.9934082031</ele>
        <time>2019-05-26T13:15:26Z</time>
      </trkpt>
      <trkpt lat="42.82619" lon="0.89165">
        <ele>2137.6286621094</ele>
        <time>2019-05-26T13:15:31Z</time>
      </trkpt>
      <trkpt lat="42.82619" lon="0.89174">
        <ele>2135.2253417969</ele>
        <time>2019-05-26T13:15:37Z</time>
      </trkpt>
      <trkpt lat="42.82618" lon="0.89183">
        <ele>2134.7448730469</ele>
        <time>2019-05-26T13:15:38Z</time>
      </trkpt>
      <trkpt lat="42.82618" lon="0.89188">
        <ele>2133.7834472656</ele>
        <time>2019-05-26T13:15:40Z</time>
      </trkpt>
      <trkpt lat="42.82619" lon="0.89191">
        <ele>2130.8996582031</ele>
        <time>2019-05-26T13:15:52Z</time>
      </trkpt>
      <trkpt lat="42.82618" lon="0.89197">
        <ele>2128.015625</ele>
        <time>2019-05-26T13:16:03Z</time>
      </trkpt>
      <trkpt lat="42.82616" lon="0.89204">
        <ele>2126.5737304688</ele>
        <time>2019-05-26T13:16:09Z</time>
      </trkpt>
      <trkpt lat="42.82611" lon="0.8921">
        <ele>2125.6123046875</ele>
        <time>2019-05-26T13:16:12Z</time>
      </trkpt>
      <trkpt lat="42.82605" lon="0.89215">
        <ele>2122.2475585938</ele>
        <time>2019-05-26T13:16:24Z</time>
      </trkpt>
      <trkpt lat="42.82601" lon="0.89221">
        <ele>2121.2861328125</ele>
        <time>2019-05-26T13:16:36Z</time>
      </trkpt>
      <trkpt lat="42.826" lon="0.89227">
        <ele>2119.8442382812</ele>
        <time>2019-05-26T13:16:45Z</time>
      </trkpt>
      <trkpt lat="42.82601" lon="0.89236">
        <ele>2119.3637695312</ele>
        <time>2019-05-26T13:16:49Z</time>
      </trkpt>
      <trkpt lat="42.82601" lon="0.89245">
        <ele>2116.4797363281</ele>
        <time>2019-05-26T13:17:03Z</time>
      </trkpt>
      <trkpt lat="42.82606" lon="0.89248">
        <ele>2115.5185546875</ele>
        <time>2019-05-26T13:17:08Z</time>
      </trkpt>
      <trkpt lat="42.82615" lon="0.89254">
        <ele>2112.6345214844</ele>
        <time>2019-05-26T13:17:14Z</time>
      </trkpt>
      <trkpt lat="42.82617" lon="0.89259">
        <ele>2112.1538085938</ele>
        <time>2019-05-26T13:17:16Z</time>
      </trkpt>
      <trkpt lat="42.82621" lon="0.89264">
        <ele>2109.7504882812</ele>
        <time>2019-05-26T13:17:19Z</time>
      </trkpt>
      <trkpt lat="42.82626" lon="0.89267">
        <ele>2107.3471679688</ele>
        <time>2019-05-26T13:17:24Z</time>
      </trkpt>
      <trkpt lat="42.8263" lon="0.89272">
        <ele>2105.4245605469</ele>
        <time>2019-05-26T13:17:27Z</time>
      </trkpt>
      <trkpt lat="42.82633" lon="0.89279">
        <ele>2102.0598144531</ele>
        <time>2019-05-26T13:17:36Z</time>
      </trkpt>
      <trkpt lat="42.82641" lon="0.89281">
        <ele>2099.1760253906</ele>
        <time>2019-05-26T13:17:41Z</time>
      </trkpt>
      <trkpt lat="42.82646" lon="0.89288">
        <ele>2098.2145996094</ele>
        <time>2019-05-26T13:17:46Z</time>
      </trkpt>
      <trkpt lat="42.82647" lon="0.89299">
        <ele>2097.2534179688</ele>
        <time>2019-05-26T13:17:58Z</time>
      </trkpt>
      <trkpt lat="42.82646" lon="0.89309">
        <ele>2094.8500976562</ele>
        <time>2019-05-26T13:18:09Z</time>
      </trkpt>
      <trkpt lat="42.82644" lon="0.89315">
        <ele>2093.408203125</ele>
        <time>2019-05-26T13:18:16Z</time>
      </trkpt>
      <trkpt lat="42.82643" lon="0.89321">
        <ele>2091.9660644531</ele>
        <time>2019-05-26T13:18:19Z</time>
      </trkpt>
      <trkpt lat="42.8264" lon="0.89329">
        <ele>2090.5239257812</ele>
        <time>2019-05-26T13:18:27Z</time>
      </trkpt>
      <trkpt lat="42.82638" lon="0.89338">
        <ele>2087.6401367188</ele>
        <time>2019-05-26T13:18:36Z</time>
      </trkpt>
      <trkpt lat="42.8264" lon="0.8934">
        <ele>2087.1594238281</ele>
        <time>2019-05-26T13:18:51Z</time>
      </trkpt>
      <trkpt lat="42.82647" lon="0.89332">
        <ele>2085.2368164062</ele>
        <time>2019-05-26T13:27:13Z</time>
      </trkpt>
      <trkpt lat="42.8266" lon="0.89318">
        <ele>2081.3916015625</ele>
        <time>2019-05-26T13:27:23Z</time>
      </trkpt>
      <trkpt lat="42.82683" lon="0.89308">
        <ele>2078.5078125</ele>
        <time>2019-05-26T13:27:39Z</time>
      </trkpt>
      <trkpt lat="42.82699" lon="0.89293">
        <ele>2075.1428222656</ele>
        <time>2019-05-26T13:27:53Z</time>
      </trkpt>
      <trkpt lat="42.82708" lon="0.89288">
        <ele>2074.181640625</ele>
        <time>2019-05-26T13:27:55Z</time>
      </trkpt>
      <trkpt lat="42.82713" lon="0.8928">
        <ele>2070.8171386719</ele>
        <time>2019-05-26T13:28:00Z</time>
      </trkpt>
      <trkpt lat="42.82721" lon="0.89282">
        <ele>2070.8171386719</ele>
        <time>2019-05-26T13:28:01Z</time>
      </trkpt>
      <trkpt lat="42.82725" lon="0.89291">
        <ele>2069.3752441406</ele>
        <time>2019-05-26T13:28:04Z</time>
      </trkpt>
      <trkpt lat="42.82728" lon="0.89308">
        <ele>2066.9719238281</ele>
        <time>2019-05-26T13:28:09Z</time>
      </trkpt>
      <trkpt lat="42.82732" lon="0.8932">
        <ele>2063.6071777344</ele>
        <time>2019-05-26T13:28:14Z</time>
      </trkpt>
      <trkpt lat="42.82733" lon="0.89328">
        <ele>2062.1652832031</ele>
        <time>2019-05-26T13:28:17Z</time>
      </trkpt>
      <trkpt lat="42.8274" lon="0.89329">
        <ele>2061.2041015625</ele>
        <time>2019-05-26T13:28:19Z</time>
      </trkpt>
      <trkpt lat="42.82742" lon="0.89336">
        <ele>2057.3586425781</ele>
        <time>2019-05-26T13:28:25Z</time>
      </trkpt>
      <trkpt lat="42.82745" lon="0.89347">
        <ele>2053.994140625</ele>
        <time>2019-05-26T13:28:31Z</time>
      </trkpt>
      <trkpt lat="42.82749" lon="0.89355">
        <ele>2053.5134277344</ele>
        <time>2019-05-26T13:28:34Z</time>
      </trkpt>
      <trkpt lat="42.8275" lon="0.89365">
        <ele>2049.6682128906</ele>
        <time>2019-05-26T13:28:45Z</time>
      </trkpt>
      <trkpt lat="42.82742" lon="0.8939">
        <ele>2048.7067871094</ele>
        <time>2019-05-26T13:28:47Z</time>
      </trkpt>
      <trkpt lat="42.82746" lon="0.89392">
        <ele>2046.7841796875</ele>
        <time>2019-05-26T13:29:03Z</time>
      </trkpt>
      <trkpt lat="42.82755" lon="0.89387">
        <ele>2044.380859375</ele>
        <time>2019-05-26T13:29:22Z</time>
      </trkpt>
      <trkpt lat="42.82762" lon="0.89384">
        <ele>2041.0161132812</ele>
        <time>2019-05-26T13:29:32Z</time>
      </trkpt>
      <trkpt lat="42.82763" lon="0.89389">
        <ele>2038.1323242188</ele>
        <time>2019-05-26T13:29:52Z</time>
      </trkpt>
      <trkpt lat="42.82759" lon="0.89399">
        <ele>2036.2097167969</ele>
        <time>2019-05-26T13:30:10Z</time>
      </trkpt>
      <trkpt lat="42.8276" lon="0.89411">
        <ele>2033.3256835938</ele>
        <time>2019-05-26T13:30:22Z</time>
      </trkpt>
      <trkpt lat="42.82762" lon="0.89421">
        <ele>2029.9611816406</ele>
        <time>2019-05-26T13:30:34Z</time>
      </trkpt>
      <trkpt lat="42.82765" lon="0.89432">
        <ele>2028.0385742188</ele>
        <time>2019-05-26T13:30:49Z</time>
      </trkpt>
      <trkpt lat="42.82768" lon="0.89443">
        <ele>2025.154296875</ele>
        <time>2019-05-26T13:31:02Z</time>
      </trkpt>
      <trkpt lat="42.8277" lon="0.89453">
        <ele>2023.7124023438</ele>
        <time>2019-05-26T13:31:16Z</time>
      </trkpt>
      <trkpt lat="42.82766" lon="0.8946">
        <ele>2022.2705078125</ele>
        <time>2019-05-26T13:31:28Z</time>
      </trkpt>
      <trkpt lat="42.8276" lon="0.89466">
        <ele>2020.3479003906</ele>
        <time>2019-05-26T13:31:40Z</time>
      </trkpt>
      <trkpt lat="42.82756" lon="0.89474">
        <ele>2018.9060058594</ele>
        <time>2019-05-26T13:31:48Z</time>
      </trkpt>
      <trkpt lat="42.82749" lon="0.89481">
        <ele>2018.4252929688</ele>
        <time>2019-05-26T13:32:01Z</time>
      </trkpt>
      <trkpt lat="42.82749" lon="0.89484">
        <ele>2018.9060058594</ele>
        <time>2019-05-26T13:32:03Z</time>
      </trkpt>
      <trkpt lat="42.82747" lon="0.89489">
        <ele>2017.4638671875</ele>
        <time>2019-05-26T13:32:06Z</time>
      </trkpt>
      <trkpt lat="42.82746" lon="0.8949">
        <ele>2017.4638671875</ele>
        <time>2019-05-26T13:32:07Z</time>
      </trkpt>
      <trkpt lat="42.82744" lon="0.89494">
        <ele>2016.0219726562</ele>
        <time>2019-05-26T13:32:09Z</time>
      </trkpt>
      <trkpt lat="42.82737" lon="0.89506">
        <ele>2012.1767578125</ele>
        <time>2019-05-26T13:32:22Z</time>
      </trkpt>
      <trkpt lat="42.82735" lon="0.89507">
        <ele>2012.1767578125</ele>
        <time>2019-05-26T13:32:24Z</time>
      </trkpt>
      <trkpt lat="42.82733" lon="0.8951">
        <ele>2010.25390625</ele>
        <time>2019-05-26T13:32:27Z</time>
      </trkpt>
      <trkpt lat="42.82728" lon="0.89519">
        <ele>2007.8508300781</ele>
        <time>2019-05-26T13:32:37Z</time>
      </trkpt>
      <trkpt lat="42.82727" lon="0.89522">
        <ele>2007.3701171875</ele>
        <time>2019-05-26T13:32:41Z</time>
      </trkpt>
      <trkpt lat="42.82726" lon="0.89527">
        <ele>2005.4475097656</ele>
        <time>2019-05-26T13:32:46Z</time>
      </trkpt>
      <trkpt lat="42.82724" lon="0.8953">
        <ele>2004.966796875</ele>
        <time>2019-05-26T13:32:49Z</time>
      </trkpt>
      <trkpt lat="42.82724" lon="0.89534">
        <ele>2004.0056152344</ele>
        <time>2019-05-26T13:32:52Z</time>
      </trkpt>
      <trkpt lat="42.82723" lon="0.89541">
        <ele>2003.0441894531</ele>
        <time>2019-05-26T13:33:08Z</time>
      </trkpt>
      <trkpt lat="42.82723" lon="0.89541">
        <ele>2003.0441894531</ele>
        <time>2019-05-26T13:33:09Z</time>
      </trkpt>
      <trkpt lat="42.82715" lon="0.89553">
        <ele>2000.6408691406</ele>
        <time>2019-05-26T13:33:24Z</time>
      </trkpt>
      <trkpt lat="42.82714" lon="0.89558">
        <ele>2000.6408691406</ele>
        <time>2019-05-26T13:33:28Z</time>
      </trkpt>
      <trkpt lat="42.82704" lon="0.89564">
        <ele>2000.1604003906</ele>
        <time>2019-05-26T13:33:40Z</time>
      </trkpt>
      <trkpt lat="42.82703" lon="0.89567">
        <ele>1999.6796875</ele>
        <time>2019-05-26T13:33:49Z</time>
      </trkpt>
      <trkpt lat="42.82692" lon="0.89589">
        <ele>1998.7182617188</ele>
        <time>2019-05-26T13:34:05Z</time>
      </trkpt>
      <trkpt lat="42.82691" lon="0.89613">
        <ele>1996.3151855469</ele>
        <time>2019-05-26T13:34:20Z</time>
      </trkpt>
      <trkpt lat="42.82682" lon="0.89628">
        <ele>1994.8728027344</ele>
        <time>2019-05-26T13:34:34Z</time>
      </trkpt>
      <trkpt lat="42.82677" lon="0.8963">
        <ele>1993.9116210938</ele>
        <time>2019-05-26T13:34:46Z</time>
      </trkpt>
      <trkpt lat="42.82674" lon="0.89629">
        <ele>1993.4309082031</ele>
        <time>2019-05-26T13:34:51Z</time>
      </trkpt>
      <trkpt lat="42.82671" lon="0.89638">
        <ele>1991.9890136719</ele>
        <time>2019-05-26T13:34:58Z</time>
      </trkpt>
      <trkpt lat="42.82666" lon="0.89648">
        <ele>1991.9890136719</ele>
        <time>2019-05-26T13:35:04Z</time>
      </trkpt>
      <trkpt lat="42.82659" lon="0.89659">
        <ele>1990.546875</ele>
        <time>2019-05-26T13:35:12Z</time>
      </trkpt>
      <trkpt lat="42.82655" lon="0.89667">
        <ele>1990.546875</ele>
        <time>2019-05-26T13:35:18Z</time>
      </trkpt>
      <trkpt lat="42.82651" lon="0.89677">
        <ele>1988.6245117188</ele>
        <time>2019-05-26T13:35:26Z</time>
      </trkpt>
      <trkpt lat="42.82645" lon="0.89687">
        <ele>1985.7404785156</ele>
        <time>2019-05-26T13:35:33Z</time>
      </trkpt>
      <trkpt lat="42.82643" lon="0.89692">
        <ele>1984.779296875</ele>
        <time>2019-05-26T13:35:36Z</time>
      </trkpt>
      <trkpt lat="42.82641" lon="0.89696">
        <ele>1983.8178710938</ele>
        <time>2019-05-26T13:35:39Z</time>
      </trkpt>
      <trkpt lat="42.82638" lon="0.89699">
        <ele>1982.3759765625</ele>
        <time>2019-05-26T13:35:43Z</time>
      </trkpt>
      <trkpt lat="42.82635" lon="0.897">
        <ele>1981.4145507812</ele>
        <time>2019-05-26T13:35:45Z</time>
      </trkpt>
      <trkpt lat="42.82631" lon="0.89706">
        <ele>1979.9724121094</ele>
        <time>2019-05-26T13:35:50Z</time>
      </trkpt>
      <trkpt lat="42.82628" lon="0.89732">
        <ele>1980.4533691406</ele>
        <time>2019-05-26T13:36:07Z</time>
      </trkpt>
      <trkpt lat="42.82632" lon="0.89746">
        <ele>1979.4916992188</ele>
        <time>2019-05-26T13:36:23Z</time>
      </trkpt>
      <trkpt lat="42.82633" lon="0.89754">
        <ele>1979.9724121094</ele>
        <time>2019-05-26T13:36:37Z</time>
      </trkpt>
      <trkpt lat="42.82631" lon="0.89762">
        <ele>1977.0886230469</ele>
        <time>2019-05-26T13:36:48Z</time>
      </trkpt>
      <trkpt lat="42.82633" lon="0.89768">
        <ele>1976.1271972656</ele>
        <time>2019-05-26T13:36:54Z</time>
      </trkpt>
      <trkpt lat="42.82635" lon="0.89775">
        <ele>1972.7626953125</ele>
        <time>2019-05-26T13:37:03Z</time>
      </trkpt>
      <trkpt lat="42.82638" lon="0.89788">
        <ele>1969.3981933594</ele>
        <time>2019-05-26T13:37:11Z</time>
      </trkpt>
      <trkpt lat="42.82641" lon="0.89797">
        <ele>1967.4753417969</ele>
        <time>2019-05-26T13:37:23Z</time>
      </trkpt>
      <trkpt lat="42.8264" lon="0.89807">
        <ele>1965.5529785156</ele>
        <time>2019-05-26T13:37:35Z</time>
      </trkpt>
      <trkpt lat="42.82642" lon="0.89816">
        <ele>1964.1108398438</ele>
        <time>2019-05-26T13:37:48Z</time>
      </trkpt>
      <trkpt lat="42.82644" lon="0.89824">
        <ele>1962.6687011719</ele>
        <time>2019-05-26T13:38:00Z</time>
      </trkpt>
      <trkpt lat="42.82645" lon="0.89826">
        <ele>1961.7075195312</ele>
        <time>2019-05-26T13:38:02Z</time>
      </trkpt>
      <trkpt lat="42.82648" lon="0.89845">
        <ele>1959.7846679688</ele>
        <time>2019-05-26T13:38:18Z</time>
      </trkpt>
      <trkpt lat="42.82649" lon="0.89855">
        <ele>1957.8623046875</ele>
        <time>2019-05-26T13:38:30Z</time>
      </trkpt>
      <trkpt lat="42.82647" lon="0.89857">
        <ele>1956.9008789062</ele>
        <time>2019-05-26T13:38:43Z</time>
      </trkpt>
      <trkpt lat="42.82648" lon="0.89862">
        <ele>1955.458984375</ele>
        <time>2019-05-26T13:38:55Z</time>
      </trkpt>
      <trkpt lat="42.8265" lon="0.89864">
        <ele>1955.939453125</ele>
        <time>2019-05-26T13:39:00Z</time>
      </trkpt>
      <trkpt lat="42.82651" lon="0.89877">
        <ele>1953.5363769531</ele>
        <time>2019-05-26T13:39:09Z</time>
      </trkpt>
      <trkpt lat="42.8265" lon="0.89886">
        <ele>1954.0170898438</ele>
        <time>2019-05-26T13:39:11Z</time>
      </trkpt>
      <trkpt lat="42.82641" lon="0.8989">
        <ele>1953.5363769531</ele>
        <time>2019-05-26T13:39:24Z</time>
      </trkpt>
      <trkpt lat="42.82639" lon="0.89891">
        <ele>1953.5363769531</ele>
        <time>2019-05-26T13:39:26Z</time>
      </trkpt>
      <trkpt lat="42.82635" lon="0.89902">
        <ele>1955.939453125</ele>
        <time>2019-05-26T13:39:43Z</time>
      </trkpt>
      <trkpt lat="42.82636" lon="0.89904">
        <ele>1954.9782714844</ele>
        <time>2019-05-26T13:39:45Z</time>
      </trkpt>
      <trkpt lat="42.82636" lon="0.89908">
        <ele>1954.9782714844</ele>
        <time>2019-05-26T13:39:50Z</time>
      </trkpt>
      <trkpt lat="42.82637" lon="0.89913">
        <ele>1951.6137695312</ele>
        <time>2019-05-26T13:40:02Z</time>
      </trkpt>
      <trkpt lat="42.82637" lon="0.89915">
        <ele>1950.171875</ele>
        <time>2019-05-26T13:40:16Z</time>
      </trkpt>
      <trkpt lat="42.82637" lon="0.89925">
        <ele>1949.6911621094</ele>
        <time>2019-05-26T13:40:21Z</time>
      </trkpt>
      <trkpt lat="42.82636" lon="0.89943">
        <ele>1947.7683105469</ele>
        <time>2019-05-26T13:40:29Z</time>
      </trkpt>
      <trkpt lat="42.82635" lon="0.89953">
        <ele>1946.3264160156</ele>
        <time>2019-05-26T13:40:35Z</time>
      </trkpt>
      <trkpt lat="42.82629" lon="0.89956">
        <ele>1944.8842773438</ele>
        <time>2019-05-26T13:40:38Z</time>
      </trkpt>
      <trkpt lat="42.82629" lon="0.89966">
        <ele>1944.4035644531</ele>
        <time>2019-05-26T13:40:42Z</time>
      </trkpt>
      <trkpt lat="42.82629" lon="0.89972">
        <ele>1943.4423828125</ele>
        <time>2019-05-26T13:40:46Z</time>
      </trkpt>
      <trkpt lat="42.82629" lon="0.89977">
        <ele>1940.5583496094</ele>
        <time>2019-05-26T13:41:00Z</time>
      </trkpt>
      <trkpt lat="42.8263" lon="0.89982">
        <ele>1940.5583496094</ele>
        <time>2019-05-26T13:41:01Z</time>
      </trkpt>
      <trkpt lat="42.82629" lon="0.89985">
        <ele>1938.6359863281</ele>
        <time>2019-05-26T13:41:17Z</time>
      </trkpt>
      <trkpt lat="42.82628" lon="0.89986">
        <ele>1938.6359863281</ele>
        <time>2019-05-26T13:41:21Z</time>
      </trkpt>
      <trkpt lat="42.82627" lon="0.89994">
        <ele>1936.2326660156</ele>
        <time>2019-05-26T13:41:31Z</time>
      </trkpt>
      <trkpt lat="42.82626" lon="0.89995">
        <ele>1935.751953125</ele>
        <time>2019-05-26T13:41:33Z</time>
      </trkpt>
      <trkpt lat="42.82628" lon="0.90003">
        <ele>1932.8679199219</ele>
        <time>2019-05-26T13:41:46Z</time>
      </trkpt>
      <trkpt lat="42.8263" lon="0.90008">
        <ele>1930.9453125</ele>
        <time>2019-05-26T13:41:59Z</time>
      </trkpt>
      <trkpt lat="42.82632" lon="0.90011">
        <ele>1929.0224609375</ele>
        <time>2019-05-26T13:42:10Z</time>
      </trkpt>
      <trkpt lat="42.82631" lon="0.90014">
        <ele>1926.138671875</ele>
        <time>2019-05-26T13:42:21Z</time>
      </trkpt>
      <trkpt lat="42.82638" lon="0.90013">
        <ele>1923.2548828125</ele>
        <time>2019-05-26T13:42:35Z</time>
      </trkpt>
      <trkpt lat="42.82641" lon="0.90022">
        <ele>1920.3708496094</ele>
        <time>2019-05-26T13:42:52Z</time>
      </trkpt>
      <trkpt lat="42.82641" lon="0.90026">
        <ele>1917.4868164062</ele>
        <time>2019-05-26T13:43:03Z</time>
      </trkpt>
      <trkpt lat="42.82641" lon="0.90026">
        <ele>1917.4868164062</ele>
        <time>2019-05-26T13:43:04Z</time>
      </trkpt>
      <trkpt lat="42.82646" lon="0.90023">
        <ele>1914.6027832031</ele>
        <time>2019-05-26T13:43:19Z</time>
      </trkpt>
      <trkpt lat="42.82655" lon="0.90021">
        <ele>1911.23828125</ele>
        <time>2019-05-26T13:43:32Z</time>
      </trkpt>
      <trkpt lat="42.82656" lon="0.90021">
        <ele>1911.23828125</ele>
        <time>2019-05-26T13:43:34Z</time>
      </trkpt>
      <trkpt lat="42.82664" lon="0.90027">
        <ele>1910.2768554688</ele>
        <time>2019-05-26T13:43:47Z</time>
      </trkpt>
      <trkpt lat="42.82666" lon="0.90035">
        <ele>1907.3930664062</ele>
        <time>2019-05-26T13:43:55Z</time>
      </trkpt>
      <trkpt lat="42.82669" lon="0.90039">
        <ele>1905.4704589844</ele>
        <time>2019-05-26T13:44:00Z</time>
      </trkpt>
      <trkpt lat="42.82676" lon="0.90048">
        <ele>1902.5864257812</ele>
        <time>2019-05-26T13:44:11Z</time>
      </trkpt>
      <trkpt lat="42.82677" lon="0.90077">
        <ele>1899.7023925781</ele>
        <time>2019-05-26T13:44:24Z</time>
      </trkpt>
      <trkpt lat="42.82676" lon="0.90098">
        <ele>1897.2990722656</ele>
        <time>2019-05-26T13:44:37Z</time>
      </trkpt>
      <trkpt lat="42.82672" lon="0.90129">
        <ele>1895.3764648438</ele>
        <time>2019-05-26T13:44:52Z</time>
      </trkpt>
      <trkpt lat="42.82669" lon="0.90153">
        <ele>1893.9345703125</ele>
        <time>2019-05-26T13:45:12Z</time>
      </trkpt>
      <trkpt lat="42.82667" lon="0.90177">
        <ele>1891.53125</ele>
        <time>2019-05-26T13:45:25Z</time>
      </trkpt>
      <trkpt lat="42.82668" lon="0.90195">
        <ele>1889.6086425781</ele>
        <time>2019-05-26T13:45:40Z</time>
      </trkpt>
      <trkpt lat="42.8267" lon="0.90216">
        <ele>1888.1667480469</ele>
        <time>2019-05-26T13:45:55Z</time>
      </trkpt>
      <trkpt lat="42.82669" lon="0.90229">
        <ele>1888.6474609375</ele>
        <time>2019-05-26T13:46:04Z</time>
      </trkpt>
      <trkpt lat="42.82671" lon="0.90241">
        <ele>1887.2053222656</ele>
        <time>2019-05-26T13:46:17Z</time>
      </trkpt>
      <trkpt lat="42.82669" lon="0.90254">
        <ele>1885.7634277344</ele>
        <time>2019-05-26T13:46:31Z</time>
      </trkpt>
      <trkpt lat="42.82668" lon="0.90263">
        <ele>1884.8022460938</ele>
        <time>2019-05-26T13:46:35Z</time>
      </trkpt>
      <trkpt lat="42.82665" lon="0.90276">
        <ele>1882.3986816406</ele>
        <time>2019-05-26T13:46:44Z</time>
      </trkpt>
      <trkpt lat="42.82666" lon="0.90302">
        <ele>1879.5146484375</ele>
        <time>2019-05-26T13:47:02Z</time>
      </trkpt>
      <trkpt lat="42.82671" lon="0.90315">
        <ele>1876.1501464844</ele>
        <time>2019-05-26T13:47:19Z</time>
      </trkpt>
      <trkpt lat="42.82671" lon="0.90321">
        <ele>1874.7082519531</ele>
        <time>2019-05-26T13:47:23Z</time>
      </trkpt>
      <trkpt lat="42.82675" lon="0.9033">
        <ele>1873.7468261719</ele>
        <time>2019-05-26T13:47:31Z</time>
      </trkpt>
      <trkpt lat="42.82681" lon="0.90338">
        <ele>1873.7468261719</ele>
        <time>2019-05-26T13:47:40Z</time>
      </trkpt>
      <trkpt lat="42.82696" lon="0.90365">
        <ele>1874.2275390625</ele>
        <time>2019-05-26T13:47:58Z</time>
      </trkpt>
      <trkpt lat="42.82698" lon="0.90367">
        <ele>1873.7468261719</ele>
        <time>2019-05-26T13:48:01Z</time>
      </trkpt>
      <trkpt lat="42.82705" lon="0.90368">
        <ele>1872.7856445312</ele>
        <time>2019-05-26T13:48:07Z</time>
      </trkpt>
      <trkpt lat="42.82733" lon="0.90376">
        <ele>1872.3049316406</ele>
        <time>2019-05-26T13:48:28Z</time>
      </trkpt>
      <trkpt lat="42.82769" lon="0.90394">
        <ele>1872.3049316406</ele>
        <time>2019-05-26T13:48:51Z</time>
      </trkpt>
      <trkpt lat="42.82777" lon="0.90389">
        <ele>1872.0645751953</ele>
        <time>2019-05-26T13:49:00Z</time>
      </trkpt>
      <trkpt lat="42.82783" lon="0.90371">
        <ele>1871.82421875</ele>
        <time>2019-05-26T13:49:10Z</time>
      </trkpt>
      <trkpt lat="42.82785" lon="0.90357">
        <ele>1872.3049316406</ele>
        <time>2019-05-26T13:49:22Z</time>
      </trkpt>
      <trkpt lat="42.82795" lon="0.90349">
        <ele>1872.7856445312</ele>
        <time>2019-05-26T13:49:32Z</time>
      </trkpt>
      <trkpt lat="42.82796" lon="0.90349">
        <ele>1873.2663574219</ele>
        <time>2019-05-26T13:49:33Z</time>
      </trkpt>
      <trkpt lat="42.828" lon="0.90352">
        <ele>1872.3049316406</ele>
        <time>2019-05-26T13:49:37Z</time>
      </trkpt>
      <trkpt lat="42.82817" lon="0.90366">
        <ele>1873.2663574219</ele>
        <time>2019-05-26T13:49:55Z</time>
      </trkpt>
      <trkpt lat="42.82825" lon="0.90375">
        <ele>1873.2663574219</ele>
        <time>2019-05-26T13:50:06Z</time>
      </trkpt>
      <trkpt lat="42.82827" lon="0.90382">
        <ele>1873.7468261719</ele>
        <time>2019-05-26T13:50:11Z</time>
      </trkpt>
      <trkpt lat="42.82846" lon="0.9042">
        <ele>1871.82421875</ele>
        <time>2019-05-26T13:50:37Z</time>
      </trkpt>
      <trkpt lat="42.82873" lon="0.90447">
        <ele>1872.3049316406</ele>
        <time>2019-05-26T13:51:03Z</time>
      </trkpt>
      <trkpt lat="42.82892" lon="0.90449">
        <ele>1872.3049316406</ele>
        <time>2019-05-26T13:51:20Z</time>
      </trkpt>
      <trkpt lat="42.82891" lon="0.90447">
        <ele>1872.3049316406</ele>
        <time>2019-05-26T13:51:33Z</time>
      </trkpt>
      <trkpt lat="42.82901" lon="0.90452">
        <ele>1872.3049316406</ele>
        <time>2019-05-26T13:51:45Z</time>
      </trkpt>
      <trkpt lat="42.82914" lon="0.90465">
        <ele>1870.3823242188</ele>
        <time>2019-05-26T13:52:04Z</time>
      </trkpt>
      <trkpt lat="42.82916" lon="0.90468">
        <ele>1871.3435058594</ele>
        <time>2019-05-26T13:52:21Z</time>
      </trkpt>
      <trkpt lat="42.8292" lon="0.90477">
        <ele>1870.8630371094</ele>
        <time>2019-05-26T13:52:37Z</time>
      </trkpt>
      <trkpt lat="42.82921" lon="0.90479">
        <ele>1870.3823242188</ele>
        <time>2019-05-26T13:53:03Z</time>
      </trkpt>
      <trkpt lat="42.82921" lon="0.90479">
        <ele>1870.8630371094</ele>
        <time>2019-05-26T13:53:48Z</time>
      </trkpt>
      <trkpt lat="42.82927" lon="0.90498">
        <ele>1870.8630371094</ele>
        <time>2019-05-26T13:54:04Z</time>
      </trkpt>
      <trkpt lat="42.82935" lon="0.9052">
        <ele>1869.9016113281</ele>
        <time>2019-05-26T13:54:19Z</time>
      </trkpt>
      <trkpt lat="42.82936" lon="0.90522">
        <ele>1869.9016113281</ele>
        <time>2019-05-26T13:54:21Z</time>
      </trkpt>
      <trkpt lat="42.8294" lon="0.90542">
        <ele>1870.3823242188</ele>
        <time>2019-05-26T13:54:31Z</time>
      </trkpt>
      <trkpt lat="42.82943" lon="0.90554">
        <ele>1870.3823242188</ele>
        <time>2019-05-26T13:54:38Z</time>
      </trkpt>
      <trkpt lat="42.82946" lon="0.9056">
        <ele>1870.8630371094</ele>
        <time>2019-05-26T13:54:42Z</time>
      </trkpt>
      <trkpt lat="42.82953" lon="0.90573">
        <ele>1870.3823242188</ele>
        <time>2019-05-26T13:54:52Z</time>
      </trkpt>
      <trkpt lat="42.82953" lon="0.90594">
        <ele>1870.3823242188</ele>
        <time>2019-05-26T13:55:05Z</time>
      </trkpt>
      <trkpt lat="42.82953" lon="0.90608">
        <ele>1869.9016113281</ele>
        <time>2019-05-26T13:55:13Z</time>
      </trkpt>
      <trkpt lat="42.82955" lon="0.90622">
        <ele>1870.3823242188</ele>
        <time>2019-05-26T13:55:19Z</time>
      </trkpt>
      <trkpt lat="42.82949" lon="0.90671">
        <ele>1871.3435058594</ele>
        <time>2019-05-26T13:55:34Z</time>
      </trkpt>
      <trkpt lat="42.82971" lon="0.90699">
        <ele>1871.3435058594</ele>
        <time>2019-05-26T13:55:47Z</time>
      </trkpt>
      <trkpt lat="42.82979" lon="0.90705">
        <ele>1871.3435058594</ele>
        <time>2019-05-26T13:55:53Z</time>
      </trkpt>
      <trkpt lat="42.82984" lon="0.90719">
        <ele>1871.3435058594</ele>
        <time>2019-05-26T13:56:00Z</time>
      </trkpt>
      <trkpt lat="42.82993" lon="0.90758">
        <ele>1870.8630371094</ele>
        <time>2019-05-26T13:56:13Z</time>
      </trkpt>
      <trkpt lat="42.82996" lon="0.90768">
        <ele>1871.3435058594</ele>
        <time>2019-05-26T13:56:17Z</time>
      </trkpt>
      <trkpt lat="42.82997" lon="0.90803">
        <ele>1871.3435058594</ele>
        <time>2019-05-26T13:56:29Z</time>
      </trkpt>
      <trkpt lat="42.82996" lon="0.90806">
        <ele>1871.3435058594</ele>
        <time>2019-05-26T13:56:30Z</time>
      </trkpt>
      <trkpt lat="42.82994" lon="0.90831">
        <ele>1871.3435058594</ele>
        <time>2019-05-26T13:56:39Z</time>
      </trkpt>
      <trkpt lat="42.82988" lon="0.90852">
        <ele>1870.8630371094</ele>
        <time>2019-05-26T13:56:48Z</time>
      </trkpt>
      <trkpt lat="42.82985" lon="0.90878">
        <ele>1870.8630371094</ele>
        <time>2019-05-26T13:57:04Z</time>
      </trkpt>
      <trkpt lat="42.82988" lon="0.90901">
        <ele>1871.82421875</ele>
        <time>2019-05-26T13:57:06Z</time>
      </trkpt>
      <trkpt lat="42.82995" lon="0.90918">
        <ele>1871.3435058594</ele>
        <time>2019-05-26T13:57:13Z</time>
      </trkpt>
      <trkpt lat="42.82998" lon="0.90939">
        <ele>1871.3435058594</ele>
        <time>2019-05-26T13:57:20Z</time>
      </trkpt>
      <trkpt lat="42.83004" lon="0.90977">
        <ele>1870.8630371094</ele>
        <time>2019-05-26T13:57:37Z</time>
      </trkpt>
      <trkpt lat="42.83016" lon="0.91015">
        <ele>1870.3823242188</ele>
        <time>2019-05-26T13:57:51Z</time>
      </trkpt>
      <trkpt lat="42.83018" lon="0.91033">
        <ele>1867.017578125</ele>
        <time>2019-05-26T13:57:58Z</time>
      </trkpt>
      <trkpt lat="42.83018" lon="0.91039">
        <ele>1867.017578125</ele>
        <time>2019-05-26T13:58:00Z</time>
      </trkpt>
      <trkpt lat="42.83018" lon="0.91061">
        <ele>1863.6528320312</ele>
        <time>2019-05-26T13:58:08Z</time>
      </trkpt>
      <trkpt lat="42.83015" lon="0.91069">
        <ele>1862.2109375</ele>
        <time>2019-05-26T13:58:13Z</time>
      </trkpt>
      <trkpt lat="42.83012" lon="0.91072">
        <ele>1863.1723632812</ele>
        <time>2019-05-26T13:58:15Z</time>
      </trkpt>
      <trkpt lat="42.83007" lon="0.91079">
        <ele>1863.6528320312</ele>
        <time>2019-05-26T13:58:27Z</time>
      </trkpt>
      <trkpt lat="42.83005" lon="0.91084">
        <ele>1861.73046875</ele>
        <time>2019-05-26T13:58:32Z</time>
      </trkpt>
      <trkpt lat="42.82999" lon="0.91097">
        <ele>1858.3657226562</ele>
        <time>2019-05-26T13:58:46Z</time>
      </trkpt>
      <trkpt lat="42.82997" lon="0.91103">
        <ele>1856.4431152344</ele>
        <time>2019-05-26T13:58:53Z</time>
      </trkpt>
      <trkpt lat="42.8299" lon="0.91117">
        <ele>1852.5979003906</ele>
        <time>2019-05-26T13:59:05Z</time>
      </trkpt>
      <trkpt lat="42.82989" lon="0.91124">
        <ele>1851.1557617188</ele>
        <time>2019-05-26T13:59:23Z</time>
      </trkpt>
      <trkpt lat="42.82987" lon="0.91132">
        <ele>1848.7524414062</ele>
        <time>2019-05-26T13:59:37Z</time>
      </trkpt>
      <trkpt lat="42.82984" lon="0.91141">
        <ele>1845.8686523438</ele>
        <time>2019-05-26T13:59:50Z</time>
      </trkpt>
      <trkpt lat="42.82983" lon="0.9115">
        <ele>1842.9846191406</ele>
        <time>2019-05-26T14:00:04Z</time>
      </trkpt>
      <trkpt lat="42.82983" lon="0.91154">
        <ele>1842.0234375</ele>
        <time>2019-05-26T14:00:16Z</time>
      </trkpt>
      <trkpt lat="42.8298" lon="0.91161">
        <ele>1839.1394042969</ele>
        <time>2019-05-26T14:00:27Z</time>
      </trkpt>
      <trkpt lat="42.82974" lon="0.91172">
        <ele>1838.1782226562</ele>
        <time>2019-05-26T14:00:43Z</time>
      </trkpt>
      <trkpt lat="42.82971" lon="0.91178">
        <ele>1835.2939453125</ele>
        <time>2019-05-26T14:00:57Z</time>
      </trkpt>
      <trkpt lat="42.8297" lon="0.91181">
        <ele>1834.3327636719</ele>
        <time>2019-05-26T14:01:03Z</time>
      </trkpt>
      <trkpt lat="42.82968" lon="0.9119">
        <ele>1830.4875488281</ele>
        <time>2019-05-26T14:01:21Z</time>
      </trkpt>
      <trkpt lat="42.8297" lon="0.91192">
        <ele>1829.5261230469</ele>
        <time>2019-05-26T14:01:26Z</time>
      </trkpt>
      <trkpt lat="42.82981" lon="0.91197">
        <ele>1825.6809082031</ele>
        <time>2019-05-26T14:01:38Z</time>
      </trkpt>
      <trkpt lat="42.82982" lon="0.91199">
        <ele>1824.7197265625</ele>
        <time>2019-05-26T14:01:40Z</time>
      </trkpt>
      <trkpt lat="42.82974" lon="0.9121">
        <ele>1821.8356933594</ele>
        <time>2019-05-26T14:01:51Z</time>
      </trkpt>
      <trkpt lat="42.82973" lon="0.91213">
        <ele>1819.4323730469</ele>
        <time>2019-05-26T14:02:06Z</time>
      </trkpt>
      <trkpt lat="42.82966" lon="0.91223">
        <ele>1816.0676269531</ele>
        <time>2019-05-26T14:02:20Z</time>
      </trkpt>
      <trkpt lat="42.82965" lon="0.9123">
        <ele>1814.1450195312</ele>
        <time>2019-05-26T14:02:34Z</time>
      </trkpt>
      <trkpt lat="42.82963" lon="0.91234">
        <ele>1812.2224121094</ele>
        <time>2019-05-26T14:02:43Z</time>
      </trkpt>
      <trkpt lat="42.82962" lon="0.91237">
        <ele>1809.8190917969</ele>
        <time>2019-05-26T14:02:52Z</time>
      </trkpt>
      <trkpt lat="42.8296" lon="0.91247">
        <ele>1806.9353027344</ele>
        <time>2019-05-26T14:03:05Z</time>
      </trkpt>
      <trkpt lat="42.82956" lon="0.91252">
        <ele>1805.4934082031</ele>
        <time>2019-05-26T14:03:14Z</time>
      </trkpt>
      <trkpt lat="42.82953" lon="0.91261">
        <ele>1804.5319824219</ele>
        <time>2019-05-26T14:03:17Z</time>
      </trkpt>
      <trkpt lat="42.82954" lon="0.91267">
        <ele>1800.6865234375</ele>
        <time>2019-05-26T14:03:29Z</time>
      </trkpt>
      <trkpt lat="42.82951" lon="0.91274">
        <ele>1797.3220214844</ele>
        <time>2019-05-26T14:03:43Z</time>
      </trkpt>
      <trkpt lat="42.82944" lon="0.91278">
        <ele>1795.3994140625</ele>
        <time>2019-05-26T14:03:53Z</time>
      </trkpt>
      <trkpt lat="42.82935" lon="0.91284">
        <ele>1792.515625</ele>
        <time>2019-05-26T14:03:59Z</time>
      </trkpt>
      <trkpt lat="42.82943" lon="0.91297">
        <ele>1789.6315917969</ele>
        <time>2019-05-26T14:04:10Z</time>
      </trkpt>
      <trkpt lat="42.82938" lon="0.91299">
        <ele>1789.1508789062</ele>
        <time>2019-05-26T14:04:11Z</time>
      </trkpt>
      <trkpt lat="42.8293" lon="0.91297">
        <ele>1787.7087402344</ele>
        <time>2019-05-26T14:04:16Z</time>
      </trkpt>
      <trkpt lat="42.82925" lon="0.91289">
        <ele>1785.7861328125</ele>
        <time>2019-05-26T14:04:22Z</time>
      </trkpt>
      <trkpt lat="42.8292" lon="0.91277">
        <ele>1784.8249511719</ele>
        <time>2019-05-26T14:04:25Z</time>
      </trkpt>
      <trkpt lat="42.82918" lon="0.91269">
        <ele>1783.8635253906</ele>
        <time>2019-05-26T14:04:30Z</time>
      </trkpt>
      <trkpt lat="42.82913" lon="0.91262">
        <ele>1782.4216308594</ele>
        <time>2019-05-26T14:04:38Z</time>
      </trkpt>
      <trkpt lat="42.82909" lon="0.91268">
        <ele>1781.9409179688</ele>
        <time>2019-05-26T14:04:41Z</time>
      </trkpt>
      <trkpt lat="42.82907" lon="0.91276">
        <ele>1781.4602050781</ele>
        <time>2019-05-26T14:04:45Z</time>
      </trkpt>
      <trkpt lat="42.82909" lon="0.913">
        <ele>1777.6149902344</ele>
        <time>2019-05-26T14:04:59Z</time>
      </trkpt>
      <trkpt lat="42.82911" lon="0.91319">
        <ele>1774.2504882812</ele>
        <time>2019-05-26T14:05:14Z</time>
      </trkpt>
      <trkpt lat="42.82912" lon="0.91333">
        <ele>1771.8469238281</ele>
        <time>2019-05-26T14:05:29Z</time>
      </trkpt>
      <trkpt lat="42.82919" lon="0.91338">
        <ele>1768.482421875</ele>
        <time>2019-05-26T14:05:42Z</time>
      </trkpt>
      <trkpt lat="42.8292" lon="0.91339">
        <ele>1766.5598144531</ele>
        <time>2019-05-26T14:05:56Z</time>
      </trkpt>
      <trkpt lat="42.82921" lon="0.91341">
        <ele>1766.0791015625</ele>
        <time>2019-05-26T14:06:07Z</time>
      </trkpt>
      <trkpt lat="42.82924" lon="0.91344">
        <ele>1763.67578125</ele>
        <time>2019-05-26T14:06:24Z</time>
      </trkpt>
      <trkpt lat="42.82928" lon="0.91347">
        <ele>1752.1398925781</ele>
        <time>2019-05-26T14:07:21Z</time>
      </trkpt>
      <trkpt lat="42.82927" lon="0.91353">
        <ele>1750.2175292969</ele>
        <time>2019-05-26T14:07:29Z</time>
      </trkpt>
      <trkpt lat="42.82923" lon="0.91357">
        <ele>1747.3334960938</ele>
        <time>2019-05-26T14:07:39Z</time>
      </trkpt>
      <trkpt lat="42.82925" lon="0.91359">
        <ele>1746.3723144531</ele>
        <time>2019-05-26T14:07:44Z</time>
      </trkpt>
      <trkpt lat="42.82926" lon="0.91359">
        <ele>1744.9301757812</ele>
        <time>2019-05-26T14:07:46Z</time>
      </trkpt>
      <trkpt lat="42.82923" lon="0.91365">
        <ele>1743.0075683594</ele>
        <time>2019-05-26T14:07:52Z</time>
      </trkpt>
      <trkpt lat="42.82919" lon="0.91367">
        <ele>1740.6042480469</ele>
        <time>2019-05-26T14:07:59Z</time>
      </trkpt>
      <trkpt lat="42.82918" lon="0.91374">
        <ele>1737.7202148438</ele>
        <time>2019-05-26T14:08:09Z</time>
      </trkpt>
      <trkpt lat="42.82923" lon="0.91378">
        <ele>1734.3557128906</ele>
        <time>2019-05-26T14:08:19Z</time>
      </trkpt>
      <trkpt lat="42.82918" lon="0.91384">
        <ele>1731.4716796875</ele>
        <time>2019-05-26T14:08:29Z</time>
      </trkpt>
      <trkpt lat="42.8292" lon="0.91389">
        <ele>1730.5104980469</ele>
        <time>2019-05-26T14:08:35Z</time>
      </trkpt>
      <trkpt lat="42.82921" lon="0.9139">
        <ele>1729.5490722656</ele>
        <time>2019-05-26T14:08:37Z</time>
      </trkpt>
      <trkpt lat="42.82929" lon="0.91394">
        <ele>1726.6652832031</ele>
        <time>2019-05-26T14:08:50Z</time>
      </trkpt>
      <trkpt lat="42.82932" lon="0.91396">
        <ele>1724.7426757812</ele>
        <time>2019-05-26T14:08:55Z</time>
      </trkpt>
      <trkpt lat="42.82933" lon="0.91397">
        <ele>1724.2619628906</ele>
        <time>2019-05-26T14:08:56Z</time>
      </trkpt>
      <trkpt lat="42.82941" lon="0.914">
        <ele>1721.3776855469</ele>
        <time>2019-05-26T14:09:05Z</time>
      </trkpt>
      <trkpt lat="42.82946" lon="0.91402">
        <ele>1719.9357910156</ele>
        <time>2019-05-26T14:09:09Z</time>
      </trkpt>
      <trkpt lat="42.82955" lon="0.91406">
        <ele>1718.4938964844</ele>
        <time>2019-05-26T14:09:16Z</time>
      </trkpt>
      <trkpt lat="42.82957" lon="0.91409">
        <ele>1717.0520019531</ele>
        <time>2019-05-26T14:09:19Z</time>
      </trkpt>
      <trkpt lat="42.82958" lon="0.91412">
        <ele>1716.5712890625</ele>
        <time>2019-05-26T14:09:21Z</time>
      </trkpt>
      <trkpt lat="42.8296" lon="0.91415">
        <ele>1715.6101074219</ele>
        <time>2019-05-26T14:09:23Z</time>
      </trkpt>
      <trkpt lat="42.82961" lon="0.91418">
        <ele>1714.6486816406</ele>
        <time>2019-05-26T14:09:25Z</time>
      </trkpt>
      <trkpt lat="42.82962" lon="0.91424">
        <ele>1713.6872558594</ele>
        <time>2019-05-26T14:09:29Z</time>
      </trkpt>
      <trkpt lat="42.82967" lon="0.9144">
        <ele>1710.8034667969</ele>
        <time>2019-05-26T14:09:41Z</time>
      </trkpt>
      <trkpt lat="42.82968" lon="0.91442">
        <ele>1709.8420410156</ele>
        <time>2019-05-26T14:09:43Z</time>
      </trkpt>
      <trkpt lat="42.82971" lon="0.91451">
        <ele>1707.9194335938</ele>
        <time>2019-05-26T14:09:49Z</time>
      </trkpt>
      <trkpt lat="42.82974" lon="0.91462">
        <ele>1705.0354003906</ele>
        <time>2019-05-26T14:10:01Z</time>
      </trkpt>
      <trkpt lat="42.82974" lon="0.91474">
        <ele>1702.6320800781</ele>
        <time>2019-05-26T14:10:11Z</time>
      </trkpt>
      <trkpt lat="42.82976" lon="0.91484">
        <ele>1700.2290039062</ele>
        <time>2019-05-26T14:10:19Z</time>
      </trkpt>
      <trkpt lat="42.82977" lon="0.91508">
        <ele>1696.8642578125</ele>
        <time>2019-05-26T14:10:34Z</time>
      </trkpt>
      <trkpt lat="42.82967" lon="0.91528">
        <ele>1693.98046875</ele>
        <time>2019-05-26T14:10:48Z</time>
      </trkpt>
      <trkpt lat="42.8296" lon="0.91549">
        <ele>1690.6154785156</ele>
        <time>2019-05-26T14:11:03Z</time>
      </trkpt>
      <trkpt lat="42.82955" lon="0.91559">
        <ele>1689.1735839844</ele>
        <time>2019-05-26T14:11:11Z</time>
      </trkpt>
      <trkpt lat="42.82951" lon="0.91564">
        <ele>1688.2124023438</ele>
        <time>2019-05-26T14:11:15Z</time>
      </trkpt>
      <trkpt lat="42.82947" lon="0.91594">
        <ele>1684.8479003906</ele>
        <time>2019-05-26T14:11:36Z</time>
      </trkpt>
      <trkpt lat="42.82947" lon="0.91599">
        <ele>1685.3283691406</ele>
        <time>2019-05-26T14:11:39Z</time>
      </trkpt>
      <trkpt lat="42.82946" lon="0.9161">
        <ele>1683.8864746094</ele>
        <time>2019-05-26T14:11:47Z</time>
      </trkpt>
      <trkpt lat="42.82944" lon="0.91616">
        <ele>1682.4445800781</ele>
        <time>2019-05-26T14:11:52Z</time>
      </trkpt>
      <trkpt lat="42.82942" lon="0.91621">
        <ele>1681.9638671875</ele>
        <time>2019-05-26T14:11:56Z</time>
      </trkpt>
      <trkpt lat="42.82931" lon="0.91637">
        <ele>1681.0026855469</ele>
        <time>2019-05-26T14:12:10Z</time>
      </trkpt>
      <trkpt lat="42.82915" lon="0.91638">
        <ele>1682.4445800781</ele>
        <time>2019-05-26T14:12:26Z</time>
      </trkpt>
      <trkpt lat="42.82907" lon="0.91632">
        <ele>1684.8479003906</ele>
        <time>2019-05-26T14:12:40Z</time>
      </trkpt>
      <trkpt lat="42.82907" lon="0.9163">
        <ele>1684.8479003906</ele>
        <time>2019-05-26T14:12:42Z</time>
      </trkpt>
      <trkpt lat="42.82901" lon="0.91621">
        <ele>1688.2124023438</ele>
        <time>2019-05-26T14:12:53Z</time>
      </trkpt>
      <trkpt lat="42.82894" lon="0.91646">
        <ele>1690.1350097656</ele>
        <time>2019-05-26T14:13:11Z</time>
      </trkpt>
      <trkpt lat="42.82892" lon="0.91651">
        <ele>1690.1350097656</ele>
        <time>2019-05-26T14:13:15Z</time>
      </trkpt>
      <trkpt lat="42.82889" lon="0.91671">
        <ele>1690.1350097656</ele>
        <time>2019-05-26T14:13:30Z</time>
      </trkpt>
      <trkpt lat="42.8289" lon="0.91676">
        <ele>1689.1735839844</ele>
        <time>2019-05-26T14:13:38Z</time>
      </trkpt>
      <trkpt lat="42.82886" lon="0.91695">
        <ele>1688.2124023438</ele>
        <time>2019-05-26T14:13:54Z</time>
      </trkpt>
      <trkpt lat="42.82883" lon="0.91709">
        <ele>1685.8090820312</ele>
        <time>2019-05-26T14:14:10Z</time>
      </trkpt>
      <trkpt lat="42.82881" lon="0.91725">
        <ele>1682.9250488281</ele>
        <time>2019-05-26T14:14:25Z</time>
      </trkpt>
      <trkpt lat="42.8288" lon="0.91733">
        <ele>1681.4831542969</ele>
        <time>2019-05-26T14:14:32Z</time>
      </trkpt>
      <trkpt lat="42.82877" lon="0.9175">
        <ele>1678.5993652344</ele>
        <time>2019-05-26T14:14:50Z</time>
      </trkpt>
      <trkpt lat="42.82877" lon="0.91768">
        <ele>1676.6767578125</ele>
        <time>2019-05-26T14:15:10Z</time>
      </trkpt>
      <trkpt lat="42.82878" lon="0.91773">
        <ele>1674.75390625</ele>
        <time>2019-05-26T14:15:36Z</time>
      </trkpt>
      <trkpt lat="42.82878" lon="0.91785">
        <ele>1672.3505859375</ele>
        <time>2019-05-26T14:15:52Z</time>
      </trkpt>
      <trkpt lat="42.82876" lon="0.91791">
        <ele>1671.8698730469</ele>
        <time>2019-05-26T14:16:10Z</time>
      </trkpt>
      <trkpt lat="42.82875" lon="0.91799">
        <ele>1669.947265625</ele>
        <time>2019-05-26T14:16:24Z</time>
      </trkpt>
      <trkpt lat="42.82874" lon="0.91807">
        <ele>1669.947265625</ele>
        <time>2019-05-26T14:16:30Z</time>
      </trkpt>
      <trkpt lat="42.82871" lon="0.91819">
        <ele>1669.466796875</ele>
        <time>2019-05-26T14:16:42Z</time>
      </trkpt>
      <trkpt lat="42.82868" lon="0.91826">
        <ele>1667.5439453125</ele>
        <time>2019-05-26T14:16:47Z</time>
      </trkpt>
      <trkpt lat="42.82868" lon="0.91833">
        <ele>1666.1020507812</ele>
        <time>2019-05-26T14:16:54Z</time>
      </trkpt>
      <trkpt lat="42.82863" lon="0.91845">
        <ele>1664.66015625</ele>
        <time>2019-05-26T14:17:04Z</time>
      </trkpt>
      <trkpt lat="42.82864" lon="0.91861">
        <ele>1662.2568359375</ele>
        <time>2019-05-26T14:17:19Z</time>
      </trkpt>
      <trkpt lat="42.8286" lon="0.91874">
        <ele>1660.3342285156</ele>
        <time>2019-05-26T14:17:35Z</time>
      </trkpt>
      <trkpt lat="42.82859" lon="0.91881">
        <ele>1658.4113769531</ele>
        <time>2019-05-26T14:17:48Z</time>
      </trkpt>
      <trkpt lat="42.82862" lon="0.91891">
        <ele>1655.046875</ele>
        <time>2019-05-26T14:18:01Z</time>
      </trkpt>
      <trkpt lat="42.82863" lon="0.91899">
        <ele>1653.6049804688</ele>
        <time>2019-05-26T14:18:15Z</time>
      </trkpt>
      <trkpt lat="42.82867" lon="0.9191">
        <ele>1650.2404785156</ele>
        <time>2019-05-26T14:18:33Z</time>
      </trkpt>
      <trkpt lat="42.82865" lon="0.91922">
        <ele>1647.3564453125</ele>
        <time>2019-05-26T14:18:55Z</time>
      </trkpt>
      <trkpt lat="42.82864" lon="0.91935">
        <ele>1643.9916992188</ele>
        <time>2019-05-26T14:19:11Z</time>
      </trkpt>
      <trkpt lat="42.82863" lon="0.91949">
        <ele>1635.33984375</ele>
        <time>2019-05-26T14:20:01Z</time>
      </trkpt>
      <trkpt lat="42.82862" lon="0.91956">
        <ele>1631.9753417969</ele>
        <time>2019-05-26T14:20:17Z</time>
      </trkpt>
      <trkpt lat="42.82862" lon="0.91969">
        <ele>1631.4946289062</ele>
        <time>2019-05-26T14:20:19Z</time>
      </trkpt>
      <trkpt lat="42.82861" lon="0.91983">
        <ele>1628.6108398438</ele>
        <time>2019-05-26T14:20:32Z</time>
      </trkpt>
      <trkpt lat="42.82862" lon="0.92001">
        <ele>1628.1301269531</ele>
        <time>2019-05-26T14:20:37Z</time>
      </trkpt>
      <trkpt lat="42.8286" lon="0.92013">
        <ele>1625.2458496094</ele>
        <time>2019-05-26T14:20:50Z</time>
      </trkpt>
      <trkpt lat="42.82872" lon="0.92003">
        <ele>1623.3234863281</ele>
        <time>2019-05-26T14:21:22Z</time>
      </trkpt>
      <trkpt lat="42.82877" lon="0.91996">
        <ele>1619.4782714844</ele>
        <time>2019-05-26T14:21:33Z</time>
      </trkpt>
      <trkpt lat="42.82882" lon="0.9199">
        <ele>1619.4782714844</ele>
        <time>2019-05-26T14:21:34Z</time>
      </trkpt>
      <trkpt lat="42.8289" lon="0.91982">
        <ele>1618.5168457031</ele>
        <time>2019-05-26T14:21:44Z</time>
      </trkpt>
      <trkpt lat="42.82895" lon="0.91976">
        <ele>1615.6330566406</ele>
        <time>2019-05-26T14:21:52Z</time>
      </trkpt>
      <trkpt lat="42.829" lon="0.9197">
        <ele>1615.15234375</ele>
        <time>2019-05-26T14:21:53Z</time>
      </trkpt>
      <trkpt lat="42.82908" lon="0.91965">
        <ele>1612.2683105469</ele>
        <time>2019-05-26T14:22:03Z</time>
      </trkpt>
      <trkpt lat="42.82915" lon="0.9197">
        <ele>1608.9035644531</ele>
        <time>2019-05-26T14:22:14Z</time>
      </trkpt>
      <trkpt lat="42.82918" lon="0.91975">
        <ele>1608.4228515625</ele>
        <time>2019-05-26T14:22:17Z</time>
      </trkpt>
      <trkpt lat="42.82922" lon="0.91979">
        <ele>1606.9809570312</ele>
        <time>2019-05-26T14:22:22Z</time>
      </trkpt>
      <trkpt lat="42.82925" lon="0.91983">
        <ele>1603.1357421875</ele>
        <time>2019-05-26T14:22:31Z</time>
      </trkpt>
      <trkpt lat="42.82927" lon="0.91986">
        <ele>1602.6550292969</ele>
        <time>2019-05-26T14:22:33Z</time>
      </trkpt>
      <trkpt lat="42.82929" lon="0.9199">
        <ele>1600.732421875</ele>
        <time>2019-05-26T14:22:38Z</time>
      </trkpt>
      <trkpt lat="42.82933" lon="0.91995">
        <ele>1599.2905273438</ele>
        <time>2019-05-26T14:22:43Z</time>
      </trkpt>
      <trkpt lat="42.82936" lon="0.92001">
        <ele>1596.8872070312</ele>
        <time>2019-05-26T14:22:49Z</time>
      </trkpt>
      <trkpt lat="42.82939" lon="0.9201">
        <ele>1594.4836425781</ele>
        <time>2019-05-26T14:22:56Z</time>
      </trkpt>
      <trkpt lat="42.82946" lon="0.92027">
        <ele>1591.5998535156</ele>
        <time>2019-05-26T14:23:07Z</time>
      </trkpt>
      <trkpt lat="42.82951" lon="0.92033">
        <ele>1588.2353515625</ele>
        <time>2019-05-26T14:23:18Z</time>
      </trkpt>
      <trkpt lat="42.82954" lon="0.92046">
        <ele>1585.3513183594</ele>
        <time>2019-05-26T14:23:28Z</time>
      </trkpt>
      <trkpt lat="42.82958" lon="0.92055">
        <ele>1583.9094238281</ele>
        <time>2019-05-26T14:23:32Z</time>
      </trkpt>
      <trkpt lat="42.82965" lon="0.92068">
        <ele>1580.0642089844</ele>
        <time>2019-05-26T14:23:43Z</time>
      </trkpt>
      <trkpt lat="42.82972" lon="0.92073">
        <ele>1576.6994628906</ele>
        <time>2019-05-26T14:23:55Z</time>
      </trkpt>
      <trkpt lat="42.82978" lon="0.92078">
        <ele>1575.2573242188</ele>
        <time>2019-05-26T14:24:08Z</time>
      </trkpt>
      <trkpt lat="42.82987" lon="0.92082">
        <ele>1571.8928222656</ele>
        <time>2019-05-26T14:24:22Z</time>
      </trkpt>
      <trkpt lat="42.82993" lon="0.9209">
        <ele>1569.0090332031</ele>
        <time>2019-05-26T14:24:36Z</time>
      </trkpt>
      <trkpt lat="42.82998" lon="0.92095">
        <ele>1565.64453125</ele>
        <time>2019-05-26T14:24:51Z</time>
      </trkpt>
      <trkpt lat="42.83004" lon="0.92097">
        <ele>1563.7214355469</ele>
        <time>2019-05-26T14:25:02Z</time>
      </trkpt>
      <trkpt lat="42.83011" lon="0.92097">
        <ele>1560.8376464844</ele>
        <time>2019-05-26T14:25:13Z</time>
      </trkpt>
      <trkpt lat="42.83016" lon="0.92099">
        <ele>1557.4731445312</ele>
        <time>2019-05-26T14:25:23Z</time>
      </trkpt>
      <trkpt lat="42.83017" lon="0.921">
        <ele>1557.4731445312</ele>
        <time>2019-05-26T14:25:24Z</time>
      </trkpt>
      <trkpt lat="42.83019" lon="0.92107">
        <ele>1556.0310058594</ele>
        <time>2019-05-26T14:25:30Z</time>
      </trkpt>
      <trkpt lat="42.83025" lon="0.92115">
        <ele>1553.6279296875</ele>
        <time>2019-05-26T14:25:41Z</time>
      </trkpt>
      <trkpt lat="42.83027" lon="0.92117">
        <ele>1552.1857910156</ele>
        <time>2019-05-26T14:25:45Z</time>
      </trkpt>
      <trkpt lat="42.83033" lon="0.92129">
        <ele>1549.7827148438</ele>
        <time>2019-05-26T14:26:00Z</time>
      </trkpt>
      <trkpt lat="42.83035" lon="0.92134">
        <ele>1548.3405761719</ele>
        <time>2019-05-26T14:26:06Z</time>
      </trkpt>
      <trkpt lat="42.83041" lon="0.92142">
        <ele>1545.4565429688</ele>
        <time>2019-05-26T14:26:16Z</time>
      </trkpt>
      <trkpt lat="42.83041" lon="0.92143">
        <ele>1544.9758300781</ele>
        <time>2019-05-26T14:26:17Z</time>
      </trkpt>
      <trkpt lat="42.83045" lon="0.92142">
        <ele>1543.0532226562</ele>
        <time>2019-05-26T14:26:22Z</time>
      </trkpt>
      <trkpt lat="42.83053" lon="0.9215">
        <ele>1540.6499023438</ele>
        <time>2019-05-26T14:26:32Z</time>
      </trkpt>
      <trkpt lat="42.83059" lon="0.92156">
        <ele>1537.7661132812</ele>
        <time>2019-05-26T14:26:39Z</time>
      </trkpt>
      <trkpt lat="42.83067" lon="0.92157">
        <ele>1534.4016113281</ele>
        <time>2019-05-26T14:26:50Z</time>
      </trkpt>
      <trkpt lat="42.83067" lon="0.92157">
        <ele>1533.4401855469</ele>
        <time>2019-05-26T14:26:52Z</time>
      </trkpt>
      <trkpt lat="42.83074" lon="0.92162">
        <ele>1530.5561523438</ele>
        <time>2019-05-26T14:27:04Z</time>
      </trkpt>
      <trkpt lat="42.83081" lon="0.92166">
        <ele>1527.1916503906</ele>
        <time>2019-05-26T14:27:15Z</time>
      </trkpt>
      <trkpt lat="42.83082" lon="0.92167">
        <ele>1526.2302246094</ele>
        <time>2019-05-26T14:27:18Z</time>
      </trkpt>
      <trkpt lat="42.83088" lon="0.92177">
        <ele>1522.8657226562</ele>
        <time>2019-05-26T14:27:30Z</time>
      </trkpt>
      <trkpt lat="42.83089" lon="0.92178">
        <ele>1522.3850097656</ele>
        <time>2019-05-26T14:27:32Z</time>
      </trkpt>
      <trkpt lat="42.83094" lon="0.92183">
        <ele>1519.0205078125</ele>
        <time>2019-05-26T14:27:43Z</time>
      </trkpt>
      <trkpt lat="42.83094" lon="0.92184">
        <ele>1519.0205078125</ele>
        <time>2019-05-26T14:27:44Z</time>
      </trkpt>
      <trkpt lat="42.83099" lon="0.92194">
        <ele>1516.6171875</ele>
        <time>2019-05-26T14:27:58Z</time>
      </trkpt>
      <trkpt lat="42.83099" lon="0.92207">
        <ele>1513.7329101562</ele>
        <time>2019-05-26T14:28:08Z</time>
      </trkpt>
      <trkpt lat="42.83103" lon="0.92219">
        <ele>1510.8491210938</ele>
        <time>2019-05-26T14:28:18Z</time>
      </trkpt>
      <trkpt lat="42.83104" lon="0.9223">
        <ele>1508.4458007812</ele>
        <time>2019-05-26T14:28:24Z</time>
      </trkpt>
      <trkpt lat="42.83106" lon="0.92242">
        <ele>1506.0424804688</ele>
        <time>2019-05-26T14:28:32Z</time>
      </trkpt>
      <trkpt lat="42.83109" lon="0.92255">
        <ele>1502.197265625</ele>
        <time>2019-05-26T14:28:44Z</time>
      </trkpt>
      <trkpt lat="42.8311" lon="0.9226">
        <ele>1499.3132324219</ele>
        <time>2019-05-26T14:28:57Z</time>
      </trkpt>
      <trkpt lat="42.83111" lon="0.92263">
        <ele>1498.3518066406</ele>
        <time>2019-05-26T14:29:08Z</time>
      </trkpt>
      <trkpt lat="42.83111" lon="0.92267">
        <ele>1498.3518066406</ele>
        <time>2019-05-26T14:29:32Z</time>
      </trkpt>
      <trkpt lat="42.83114" lon="0.92274">
        <ele>1497.8713378906</ele>
        <time>2019-05-26T14:31:15Z</time>
      </trkpt>
      <trkpt lat="42.83116" lon="0.92281">
        <ele>1495.9487304688</ele>
        <time>2019-05-26T14:31:32Z</time>
      </trkpt>
      <trkpt lat="42.8312" lon="0.92277">
        <ele>1493.0646972656</ele>
        <time>2019-05-26T14:31:50Z</time>
      </trkpt>
      <trkpt lat="42.83124" lon="0.92272">
        <ele>1489.7001953125</ele>
        <time>2019-05-26T14:32:05Z</time>
      </trkpt>
      <trkpt lat="42.83127" lon="0.92272">
        <ele>1487.296875</ele>
        <time>2019-05-26T14:32:18Z</time>
      </trkpt>
      <trkpt lat="42.83127" lon="0.92281">
        <ele>1484.4130859375</ele>
        <time>2019-05-26T14:32:32Z</time>
      </trkpt>
      <trkpt lat="42.83133" lon="0.92278">
        <ele>1481.5288085938</ele>
        <time>2019-05-26T14:32:46Z</time>
      </trkpt>
      <trkpt lat="42.83131" lon="0.92291">
        <ele>1479.6062011719</ele>
        <time>2019-05-26T14:33:02Z</time>
      </trkpt>
      <trkpt lat="42.8313" lon="0.923">
        <ele>1478.1643066406</ele>
        <time>2019-05-26T14:33:22Z</time>
      </trkpt>
      <trkpt lat="42.83129" lon="0.92309">
        <ele>1476.2416992188</ele>
        <time>2019-05-26T14:33:35Z</time>
      </trkpt>
      <trkpt lat="42.83127" lon="0.92315">
        <ele>1472.8771972656</ele>
        <time>2019-05-26T14:33:50Z</time>
      </trkpt>
      <trkpt lat="42.83127" lon="0.92319">
        <ele>1472.8771972656</ele>
        <time>2019-05-26T14:33:51Z</time>
      </trkpt>
      <trkpt lat="42.8313" lon="0.92322">
        <ele>1471.4350585938</ele>
        <time>2019-05-26T14:34:03Z</time>
      </trkpt>
      <trkpt lat="42.83131" lon="0.92326">
        <ele>1468.5512695312</ele>
        <time>2019-05-26T14:34:17Z</time>
      </trkpt>
      <trkpt lat="42.83131" lon="0.92332">
        <ele>1466.1477050781</ele>
        <time>2019-05-26T14:34:33Z</time>
      </trkpt>
      <trkpt lat="42.83135" lon="0.92338">
        <ele>1462.783203125</ele>
        <time>2019-05-26T14:34:47Z</time>
      </trkpt>
      <trkpt lat="42.83138" lon="0.92343">
        <ele>1459.4187011719</ele>
        <time>2019-05-26T14:35:05Z</time>
      </trkpt>
      <trkpt lat="42.8314" lon="0.92347">
        <ele>1456.5346679688</ele>
        <time>2019-05-26T14:35:20Z</time>
      </trkpt>
      <trkpt lat="42.83141" lon="0.92352">
        <ele>1453.6508789062</ele>
        <time>2019-05-26T14:35:37Z</time>
      </trkpt>
      <trkpt lat="42.83144" lon="0.92357">
        <ele>1451.7280273438</ele>
        <time>2019-05-26T14:35:49Z</time>
      </trkpt>
      <trkpt lat="42.83145" lon="0.92365">
        <ele>1448.36328125</ele>
        <time>2019-05-26T14:36:03Z</time>
      </trkpt>
      <trkpt lat="42.83143" lon="0.92375">
        <ele>1445.4794921875</ele>
        <time>2019-05-26T14:36:15Z</time>
      </trkpt>
      <trkpt lat="42.8314" lon="0.92379">
        <ele>1444.9987792969</ele>
        <time>2019-05-26T14:36:19Z</time>
      </trkpt>
      <trkpt lat="42.83134" lon="0.92387">
        <ele>1441.6342773438</ele>
        <time>2019-05-26T14:36:31Z</time>
      </trkpt>
      <trkpt lat="42.83133" lon="0.92392">
        <ele>1438.2697753906</ele>
        <time>2019-05-26T14:36:46Z</time>
      </trkpt>
      <trkpt lat="42.83134" lon="0.92392">
        <ele>1435.8662109375</ele>
        <time>2019-05-26T14:36:58Z</time>
      </trkpt>
      <trkpt lat="42.83132" lon="0.92402">
        <ele>1432.9821777344</ele>
        <time>2019-05-26T14:37:10Z</time>
      </trkpt>
      <trkpt lat="42.83128" lon="0.92415">
        <ele>1430.5791015625</ele>
        <time>2019-05-26T14:37:23Z</time>
      </trkpt>
      <trkpt lat="42.83125" lon="0.92415">
        <ele>1429.1369628906</ele>
        <time>2019-05-26T14:37:27Z</time>
      </trkpt>
      <trkpt lat="42.83118" lon="0.92416">
        <ele>1427.2145996094</ele>
        <time>2019-05-26T14:37:39Z</time>
      </trkpt>
      <trkpt lat="42.83107" lon="0.92412">
        <ele>1424.3305664062</ele>
        <time>2019-05-26T14:37:49Z</time>
      </trkpt>
      <trkpt lat="42.83097" lon="0.92409">
        <ele>1421.4465332031</ele>
        <time>2019-05-26T14:38:02Z</time>
      </trkpt>
      <trkpt lat="42.83095" lon="0.92408">
        <ele>1419.5239257812</ele>
        <time>2019-05-26T14:38:16Z</time>
      </trkpt>
      <trkpt lat="42.8309" lon="0.92412">
        <ele>1416.1591796875</ele>
        <time>2019-05-26T14:38:40Z</time>
      </trkpt>
      <trkpt lat="42.83084" lon="0.92416">
        <ele>1412.7946777344</ele>
        <time>2019-05-26T14:38:58Z</time>
      </trkpt>
      <trkpt lat="42.83083" lon="0.92421">
        <ele>1409.9106445312</ele>
        <time>2019-05-26T14:39:14Z</time>
      </trkpt>
      <trkpt lat="42.83076" lon="0.92427">
        <ele>1407.5075683594</ele>
        <time>2019-05-26T14:39:27Z</time>
      </trkpt>
      <trkpt lat="42.83075" lon="0.92428">
        <ele>1406.5461425781</ele>
        <time>2019-05-26T14:39:29Z</time>
      </trkpt>
      <trkpt lat="42.8308" lon="0.92435">
        <ele>1405.5849609375</ele>
        <time>2019-05-26T14:39:36Z</time>
      </trkpt>
      <trkpt lat="42.83081" lon="0.92442">
        <ele>1402.7006835938</ele>
        <time>2019-05-26T14:39:50Z</time>
      </trkpt>
      <trkpt lat="42.83077" lon="0.92452">
        <ele>1399.3361816406</ele>
        <time>2019-05-26T14:40:03Z</time>
      </trkpt>
      <trkpt lat="42.83078" lon="0.92451">
        <ele>1396.4523925781</ele>
        <time>2019-05-26T14:40:20Z</time>
      </trkpt>
      <trkpt lat="42.8308" lon="0.92459">
        <ele>1393.0876464844</ele>
        <time>2019-05-26T14:40:35Z</time>
      </trkpt>
      <trkpt lat="42.83073" lon="0.92464">
        <ele>1390.2038574219</ele>
        <time>2019-05-26T14:40:48Z</time>
      </trkpt>
      <trkpt lat="42.83077" lon="0.9246">
        <ele>1387.3195800781</ele>
        <time>2019-05-26T14:41:00Z</time>
      </trkpt>
      <trkpt lat="42.83075" lon="0.9246">
        <ele>1385.8776855469</ele>
        <time>2019-05-26T14:41:05Z</time>
      </trkpt>
      <trkpt lat="42.83075" lon="0.92477">
        <ele>1382.5131835938</ele>
        <time>2019-05-26T14:41:19Z</time>
      </trkpt>
      <trkpt lat="42.83075" lon="0.92483">
        <ele>1379.1484375</ele>
        <time>2019-05-26T14:41:34Z</time>
      </trkpt>
      <trkpt lat="42.83065" lon="0.92486">
        <ele>1375.7839355469</ele>
        <time>2019-05-26T14:41:47Z</time>
      </trkpt>
      <trkpt lat="42.83067" lon="0.92494">
        <ele>1372.4194335938</ele>
        <time>2019-05-26T14:41:58Z</time>
      </trkpt>
      <trkpt lat="42.83068" lon="0.92494">
        <ele>1372.4194335938</ele>
        <time>2019-05-26T14:41:59Z</time>
      </trkpt>
      <trkpt lat="42.8307" lon="0.925">
        <ele>1369.0546875</ele>
        <time>2019-05-26T14:42:08Z</time>
      </trkpt>
      <trkpt lat="42.83078" lon="0.92505">
        <ele>1365.6901855469</ele>
        <time>2019-05-26T14:42:19Z</time>
      </trkpt>
      <trkpt lat="42.83082" lon="0.92516">
        <ele>1362.8061523438</ele>
        <time>2019-05-26T14:42:31Z</time>
      </trkpt>
      <trkpt lat="42.83086" lon="0.9252">
        <ele>1359.4416503906</ele>
        <time>2019-05-26T14:42:46Z</time>
      </trkpt>
      <trkpt lat="42.83087" lon="0.92525">
        <ele>1356.0769042969</ele>
        <time>2019-05-26T14:42:58Z</time>
      </trkpt>
      <trkpt lat="42.83088" lon="0.92532">
        <ele>1353.1928710938</ele>
        <time>2019-05-26T14:43:10Z</time>
      </trkpt>
      <trkpt lat="42.83091" lon="0.9254">
        <ele>1349.34765625</ele>
        <time>2019-05-26T14:43:18Z</time>
      </trkpt>
      <trkpt lat="42.83093" lon="0.92549">
        <ele>1345.9831542969</ele>
        <time>2019-05-26T14:43:28Z</time>
      </trkpt>
      <trkpt lat="42.83093" lon="0.92549">
        <ele>1345.9831542969</ele>
        <time>2019-05-26T14:43:29Z</time>
      </trkpt>
      <trkpt lat="42.83096" lon="0.92551">
        <ele>1342.6186523438</ele>
        <time>2019-05-26T14:43:42Z</time>
      </trkpt>
      <trkpt lat="42.83096" lon="0.92562">
        <ele>1339.2536621094</ele>
        <time>2019-05-26T14:43:54Z</time>
      </trkpt>
      <trkpt lat="42.83092" lon="0.92572">
        <ele>1336.3698730469</ele>
        <time>2019-05-26T14:44:11Z</time>
      </trkpt>
      <trkpt lat="42.83091" lon="0.92588">
        <ele>1334.9279785156</ele>
        <time>2019-05-26T14:44:29Z</time>
      </trkpt>
      <trkpt lat="42.83092" lon="0.92598">
        <ele>1332.0439453125</ele>
        <time>2019-05-26T14:44:53Z</time>
      </trkpt>
      <trkpt lat="42.83089" lon="0.92599">
        <ele>1328.6794433594</ele>
        <time>2019-05-26T14:45:07Z</time>
      </trkpt>
      <trkpt lat="42.83089" lon="0.926">
        <ele>1328.6794433594</ele>
        <time>2019-05-26T14:45:08Z</time>
      </trkpt>
      <trkpt lat="42.83095" lon="0.92612">
        <ele>1325.3146972656</ele>
        <time>2019-05-26T14:45:19Z</time>
      </trkpt>
      <trkpt lat="42.83105" lon="0.9262">
        <ele>1322.4306640625</ele>
        <time>2019-05-26T14:45:32Z</time>
      </trkpt>
      <trkpt lat="42.83123" lon="0.92627">
        <ele>1320.02734375</ele>
        <time>2019-05-26T14:45:48Z</time>
      </trkpt>
      <trkpt lat="42.83132" lon="0.92637">
        <ele>1317.6240234375</ele>
        <time>2019-05-26T14:46:05Z</time>
      </trkpt>
      <trkpt lat="42.83133" lon="0.92649">
        <ele>1314.2595214844</ele>
        <time>2019-05-26T14:46:21Z</time>
      </trkpt>
      <trkpt lat="42.83131" lon="0.92657">
        <ele>1312.8176269531</ele>
        <time>2019-05-26T14:46:31Z</time>
      </trkpt>
      <trkpt lat="42.8312" lon="0.92663">
        <ele>1310.8950195312</ele>
        <time>2019-05-26T14:46:49Z</time>
      </trkpt>
      <trkpt lat="42.83116" lon="0.92665">
        <ele>1308.4916992188</ele>
        <time>2019-05-26T14:47:08Z</time>
      </trkpt>
      <trkpt lat="42.83112" lon="0.92668">
        <ele>1306.5688476562</ele>
        <time>2019-05-26T14:47:29Z</time>
      </trkpt>
      <trkpt lat="42.83103" lon="0.92669">
        <ele>1304.6462402344</ele>
        <time>2019-05-26T14:47:48Z</time>
      </trkpt>
      <trkpt lat="42.831" lon="0.92671">
        <ele>1300.8010253906</ele>
        <time>2019-05-26T14:48:20Z</time>
      </trkpt>
      <trkpt lat="42.83108" lon="0.9267">
        <ele>1298.3977050781</ele>
        <time>2019-05-26T14:48:38Z</time>
      </trkpt>
      <trkpt lat="42.83116" lon="0.9268">
        <ele>1295.9946289062</ele>
        <time>2019-05-26T14:49:00Z</time>
      </trkpt>
      <trkpt lat="42.83117" lon="0.92686">
        <ele>1293.1105957031</ele>
        <time>2019-05-26T14:49:12Z</time>
      </trkpt>
      <trkpt lat="42.83118" lon="0.92693">
        <ele>1290.2265625</ele>
        <time>2019-05-26T14:49:27Z</time>
      </trkpt>
      <trkpt lat="42.83123" lon="0.92699">
        <ele>1286.3813476562</ele>
        <time>2019-05-26T14:49:40Z</time>
      </trkpt>
      <trkpt lat="42.83117" lon="0.92706">
        <ele>1283.0166015625</ele>
        <time>2019-05-26T14:49:55Z</time>
      </trkpt>
      <trkpt lat="42.83115" lon="0.92711">
        <ele>1281.5747070312</ele>
        <time>2019-05-26T14:50:03Z</time>
      </trkpt>
      <trkpt lat="42.83117" lon="0.92715">
        <ele>1278.2102050781</ele>
        <time>2019-05-26T14:50:26Z</time>
      </trkpt>
      <trkpt lat="42.83118" lon="0.92722">
        <ele>1277.7294921875</ele>
        <time>2019-05-26T14:51:02Z</time>
      </trkpt>
      <trkpt lat="42.83125" lon="0.92729">
        <ele>1275.3259277344</ele>
        <time>2019-05-26T14:51:20Z</time>
      </trkpt>
      <trkpt lat="42.8312" lon="0.92738">
        <ele>1273.4035644531</ele>
        <time>2019-05-26T14:51:58Z</time>
      </trkpt>
      <trkpt lat="42.83119" lon="0.92739">
        <ele>1270.51953125</ele>
        <time>2019-05-26T14:52:21Z</time>
      </trkpt>
      <trkpt lat="42.83116" lon="0.92752">
        <ele>1268.5969238281</ele>
        <time>2019-05-26T14:52:54Z</time>
      </trkpt>
      <trkpt lat="42.83117" lon="0.92761">
        <ele>1265.7131347656</ele>
        <time>2019-05-26T14:53:12Z</time>
      </trkpt>
      <trkpt lat="42.83119" lon="0.92763">
        <ele>1265.232421875</ele>
        <time>2019-05-26T14:53:17Z</time>
      </trkpt>
      <trkpt lat="42.83123" lon="0.92767">
        <ele>1261.8679199219</ele>
        <time>2019-05-26T14:53:45Z</time>
      </trkpt>
      <trkpt lat="42.83127" lon="0.92778">
        <ele>1259.4643554688</ele>
        <time>2019-05-26T14:54:17Z</time>
      </trkpt>
      <trkpt lat="42.83131" lon="0.92788">
        <ele>1256.099609375</ele>
        <time>2019-05-26T14:54:34Z</time>
      </trkpt>
      <trkpt lat="42.83138" lon="0.92802">
        <ele>1253.2158203125</ele>
        <time>2019-05-26T14:54:48Z</time>
      </trkpt>
      <trkpt lat="42.83135" lon="0.92807">
        <ele>1249.8513183594</ele>
        <time>2019-05-26T14:55:01Z</time>
      </trkpt>
      <trkpt lat="42.83132" lon="0.92834">
        <ele>1246.9672851562</ele>
        <time>2019-05-26T14:55:25Z</time>
      </trkpt>
      <trkpt lat="42.83129" lon="0.92841">
        <ele>1245.0446777344</ele>
        <time>2019-05-26T14:55:36Z</time>
      </trkpt>
      <trkpt lat="42.8313" lon="0.92849">
        <ele>1242.1606445312</ele>
        <time>2019-05-26T14:55:45Z</time>
      </trkpt>
      <trkpt lat="42.83129" lon="0.92859">
        <ele>1238.7961425781</ele>
        <time>2019-05-26T14:56:01Z</time>
      </trkpt>
      <trkpt lat="42.83129" lon="0.9287">
        <ele>1235.912109375</ele>
        <time>2019-05-26T14:56:14Z</time>
      </trkpt>
      <trkpt lat="42.8313" lon="0.92873">
        <ele>1234.9509277344</ele>
        <time>2019-05-26T14:56:16Z</time>
      </trkpt>
      <trkpt lat="42.83133" lon="0.92896">
        <ele>1233.0280761719</ele>
        <time>2019-05-26T14:56:27Z</time>
      </trkpt>
      <trkpt lat="42.8313" lon="0.92907">
        <ele>1229.6635742188</ele>
        <time>2019-05-26T14:56:38Z</time>
      </trkpt>
      <trkpt lat="42.83137" lon="0.92919">
        <ele>1226.7795410156</ele>
        <time>2019-05-26T14:56:54Z</time>
      </trkpt>
      <trkpt lat="42.83146" lon="0.92912">
        <ele>1223.4150390625</ele>
        <time>2019-05-26T14:57:09Z</time>
      </trkpt>
      <trkpt lat="42.83152" lon="0.92901">
        <ele>1220.0502929688</ele>
        <time>2019-05-26T14:57:27Z</time>
      </trkpt>
      <trkpt lat="42.83154" lon="0.92897">
        <ele>1218.6083984375</ele>
        <time>2019-05-26T14:57:33Z</time>
      </trkpt>
      <trkpt lat="42.83166" lon="0.92904">
        <ele>1215.2438964844</ele>
        <time>2019-05-26T14:57:49Z</time>
      </trkpt>
      <trkpt lat="42.83164" lon="0.92895">
        <ele>1213.3212890625</ele>
        <time>2019-05-26T14:58:14Z</time>
      </trkpt>
      <trkpt lat="42.83168" lon="0.929">
        <ele>1210.9177246094</ele>
        <time>2019-05-26T14:58:22Z</time>
      </trkpt>
      <trkpt lat="42.83177" lon="0.92912">
        <ele>1209.4758300781</ele>
        <time>2019-05-26T14:58:28Z</time>
      </trkpt>
      <trkpt lat="42.8318" lon="0.92927">
        <ele>1206.591796875</ele>
        <time>2019-05-26T14:58:42Z</time>
      </trkpt>
      <trkpt lat="42.83182" lon="0.92928">
        <ele>1202.7465820312</ele>
        <time>2019-05-26T14:58:54Z</time>
      </trkpt>
      <trkpt lat="42.83185" lon="0.92927">
        <ele>1199.3820800781</ele>
        <time>2019-05-26T14:59:14Z</time>
      </trkpt>
      <trkpt lat="42.83192" lon="0.92916">
        <ele>1196.017578125</ele>
        <time>2019-05-26T14:59:27Z</time>
      </trkpt>
      <trkpt lat="42.83193" lon="0.92914">
        <ele>1195.0559082031</ele>
        <time>2019-05-26T14:59:29Z</time>
      </trkpt>
      <trkpt lat="42.83199" lon="0.92911">
        <ele>1191.69140625</ele>
        <time>2019-05-26T14:59:40Z</time>
      </trkpt>
      <trkpt lat="42.8321" lon="0.92922">
        <ele>1188.3269042969</ele>
        <time>2019-05-26T14:59:52Z</time>
      </trkpt>
      <trkpt lat="42.83208" lon="0.9293">
        <ele>1184.9624023438</ele>
        <time>2019-05-26T15:00:04Z</time>
      </trkpt>
      <trkpt lat="42.83207" lon="0.9294">
        <ele>1181.59765625</ele>
        <time>2019-05-26T15:00:19Z</time>
      </trkpt>
      <trkpt lat="42.8321" lon="0.9295">
        <ele>1179.1940917969</ele>
        <time>2019-05-26T15:00:28Z</time>
      </trkpt>
      <trkpt lat="42.8321" lon="0.92963">
        <ele>1175.3488769531</ele>
        <time>2019-05-26T15:00:39Z</time>
      </trkpt>
      <trkpt lat="42.83218" lon="0.92983">
        <ele>1172.9458007812</ele>
        <time>2019-05-26T15:00:54Z</time>
      </trkpt>
      <trkpt lat="42.83225" lon="0.92995">
        <ele>1170.0617675781</ele>
        <time>2019-05-26T15:01:08Z</time>
      </trkpt>
      <trkpt lat="42.83232" lon="0.93015">
        <ele>1167.6584472656</ele>
        <time>2019-05-26T15:01:22Z</time>
      </trkpt>
      <trkpt lat="42.83231" lon="0.93026">
        <ele>1164.2939453125</ele>
        <time>2019-05-26T15:01:31Z</time>
      </trkpt>
      <trkpt lat="42.83232" lon="0.93036">
        <ele>1161.4099121094</ele>
        <time>2019-05-26T15:01:44Z</time>
      </trkpt>
      <trkpt lat="42.83242" lon="0.93066">
        <ele>1158.0454101562</ele>
        <time>2019-05-26T15:02:00Z</time>
      </trkpt>
      <trkpt lat="42.83246" lon="0.93077">
        <ele>1155.1613769531</ele>
        <time>2019-05-26T15:02:13Z</time>
      </trkpt>
      <trkpt lat="42.8325" lon="0.93087">
        <ele>1151.796875</ele>
        <time>2019-05-26T15:02:28Z</time>
      </trkpt>
      <trkpt lat="42.83254" lon="0.93093">
        <ele>1149.8742675781</ele>
        <time>2019-05-26T15:02:42Z</time>
      </trkpt>
      <trkpt lat="42.83259" lon="0.93098">
        <ele>1146.5095214844</ele>
        <time>2019-05-26T15:02:55Z</time>
      </trkpt>
      <trkpt lat="42.83264" lon="0.93104">
        <ele>1143.6254882812</ele>
        <time>2019-05-26T15:03:08Z</time>
      </trkpt>
      <trkpt lat="42.83269" lon="0.93119">
        <ele>1140.2609863281</ele>
        <time>2019-05-26T15:03:18Z</time>
      </trkpt>
      <trkpt lat="42.83279" lon="0.93136">
        <ele>1140.2609863281</ele>
        <time>2019-05-26T15:03:37Z</time>
      </trkpt>
      <trkpt lat="42.8328" lon="0.93135">
        <ele>1139.7802734375</ele>
        <time>2019-05-26T15:03:40Z</time>
      </trkpt>
      <trkpt lat="42.83283" lon="0.93129">
        <ele>1136.4157714844</ele>
        <time>2019-05-26T15:04:03Z</time>
      </trkpt>
      <trkpt lat="42.83284" lon="0.93128">
        <ele>1135.4543457031</ele>
        <time>2019-05-26T15:04:05Z</time>
      </trkpt>
      <trkpt lat="42.83289" lon="0.93131">
        <ele>1132.5705566406</ele>
        <time>2019-05-26T15:04:21Z</time>
      </trkpt>
      <trkpt lat="42.8329" lon="0.93132">
        <ele>1132.08984375</ele>
        <time>2019-05-26T15:04:23Z</time>
      </trkpt>
      <trkpt lat="42.83298" lon="0.93136">
        <ele>1128.7250976562</ele>
        <time>2019-05-26T15:04:34Z</time>
      </trkpt>
      <trkpt lat="42.83303" lon="0.93132">
        <ele>1125.8410644531</ele>
        <time>2019-05-26T15:04:49Z</time>
      </trkpt>
      <trkpt lat="42.83307" lon="0.93132">
        <ele>1122.4765625</ele>
        <time>2019-05-26T15:05:02Z</time>
      </trkpt>
      <trkpt lat="42.8331" lon="0.93136">
        <ele>1119.5927734375</ele>
        <time>2019-05-26T15:05:17Z</time>
      </trkpt>
      <trkpt lat="42.83314" lon="0.93146">
        <ele>1116.2280273438</ele>
        <time>2019-05-26T15:05:30Z</time>
      </trkpt>
      <trkpt lat="42.83322" lon="0.93157">
        <ele>1113.3439941406</ele>
        <time>2019-05-26T15:05:45Z</time>
      </trkpt>
      <trkpt lat="42.83324" lon="0.93165">
        <ele>1109.4987792969</ele>
        <time>2019-05-26T15:05:59Z</time>
      </trkpt>
      <trkpt lat="42.83332" lon="0.93182">
        <ele>1106.1340332031</ele>
        <time>2019-05-26T15:06:15Z</time>
      </trkpt>
      <trkpt lat="42.83335" lon="0.93188">
        <ele>1103.2502441406</ele>
        <time>2019-05-26T15:06:27Z</time>
      </trkpt>
      <trkpt lat="42.83345" lon="0.93195">
        <ele>1099.8854980469</ele>
        <time>2019-05-26T15:06:43Z</time>
      </trkpt>
      <trkpt lat="42.83354" lon="0.93201">
        <ele>1096.5209960938</ele>
        <time>2019-05-26T15:06:59Z</time>
      </trkpt>
      <trkpt lat="42.83367" lon="0.93199">
        <ele>1093.15625</ele>
        <time>2019-05-26T15:07:12Z</time>
      </trkpt>
      <trkpt lat="42.83369" lon="0.93198">
        <ele>1093.15625</ele>
        <time>2019-05-26T15:07:14Z</time>
      </trkpt>
      <trkpt lat="42.83379" lon="0.93193">
        <ele>1089.3110351562</ele>
        <time>2019-05-26T15:07:32Z</time>
      </trkpt>
      <trkpt lat="42.83392" lon="0.93191">
        <ele>1086.4272460938</ele>
        <time>2019-05-26T15:07:49Z</time>
      </trkpt>
      <trkpt lat="42.83395" lon="0.93187">
        <ele>1083.54296875</ele>
        <time>2019-05-26T15:08:01Z</time>
      </trkpt>
      <trkpt lat="42.83402" lon="0.9319">
        <ele>1080.1784667969</ele>
        <time>2019-05-26T15:08:14Z</time>
      </trkpt>
      <trkpt lat="42.83408" lon="0.93194">
        <ele>1078.255859375</ele>
        <time>2019-05-26T15:08:20Z</time>
      </trkpt>
      <trkpt lat="42.83414" lon="0.93204">
        <ele>1075.8525390625</ele>
        <time>2019-05-26T15:08:34Z</time>
      </trkpt>
      <trkpt lat="42.83425" lon="0.93223">
        <ele>1072.4880371094</ele>
        <time>2019-05-26T15:08:46Z</time>
      </trkpt>
      <trkpt lat="42.8343" lon="0.93241">
        <ele>1069.6042480469</ele>
        <time>2019-05-26T15:09:02Z</time>
      </trkpt>
      <trkpt lat="42.83431" lon="0.93252">
        <ele>1066.2392578125</ele>
        <time>2019-05-26T15:09:15Z</time>
      </trkpt>
      <trkpt lat="42.83433" lon="0.9327">
        <ele>1063.35546875</ele>
        <time>2019-05-26T15:09:28Z</time>
      </trkpt>
      <trkpt lat="42.83433" lon="0.93274">
        <ele>1062.3940429688</ele>
        <time>2019-05-26T15:09:30Z</time>
      </trkpt>
      <trkpt lat="42.83427" lon="0.93291">
        <ele>1059.5102539062</ele>
        <time>2019-05-26T15:09:46Z</time>
      </trkpt>
      <trkpt lat="42.83422" lon="0.93302">
        <ele>1057.1069335938</ele>
        <time>2019-05-26T15:10:00Z</time>
      </trkpt>
      <trkpt lat="42.8342" lon="0.9331">
        <ele>1053.7424316406</ele>
        <time>2019-05-26T15:10:13Z</time>
      </trkpt>
      <trkpt lat="42.83422" lon="0.93323">
        <ele>1050.3776855469</ele>
        <time>2019-05-26T15:10:24Z</time>
      </trkpt>
      <trkpt lat="42.83421" lon="0.93331">
        <ele>1047.9743652344</ele>
        <time>2019-05-26T15:10:34Z</time>
      </trkpt>
      <trkpt lat="42.83418" lon="0.9334">
        <ele>1045.5710449219</ele>
        <time>2019-05-26T15:10:48Z</time>
      </trkpt>
      <trkpt lat="42.83419" lon="0.93342">
        <ele>1044.1291503906</ele>
        <time>2019-05-26T15:11:03Z</time>
      </trkpt>
      <trkpt lat="42.83421" lon="0.93337">
        <ele>1041.7258300781</ele>
        <time>2019-05-26T15:11:20Z</time>
      </trkpt>
      <trkpt lat="42.83427" lon="0.93338">
        <ele>1038.361328125</ele>
        <time>2019-05-26T15:11:36Z</time>
      </trkpt>
      <trkpt lat="42.83431" lon="0.93336">
        <ele>1035.9577636719</ele>
        <time>2019-05-26T15:11:56Z</time>
      </trkpt>
      <trkpt lat="42.83434" lon="0.93332">
        <ele>1033.0737304688</ele>
        <time>2019-05-26T15:12:18Z</time>
      </trkpt>
      <trkpt lat="42.83438" lon="0.93328">
        <ele>1030.6706542969</ele>
        <time>2019-05-26T15:12:35Z</time>
      </trkpt>
      <trkpt lat="42.83445" lon="0.93332">
        <ele>1027.3061523438</ele>
        <time>2019-05-26T15:12:49Z</time>
      </trkpt>
      <trkpt lat="42.83448" lon="0.93335">
        <ele>1024.4221191406</ele>
        <time>2019-05-26T15:13:01Z</time>
      </trkpt>
      <trkpt lat="42.83451" lon="0.93351">
        <ele>1021.5380859375</ele>
        <time>2019-05-26T15:13:19Z</time>
      </trkpt>
      <trkpt lat="42.83456" lon="0.93371">
        <ele>1018.6540527344</ele>
        <time>2019-05-26T15:13:33Z</time>
      </trkpt>
      <trkpt lat="42.83458" lon="0.93388">
        <ele>1015.7702636719</ele>
        <time>2019-05-26T15:13:45Z</time>
      </trkpt>
      <trkpt lat="42.83461" lon="0.93411">
        <ele>1014.328125</ele>
        <time>2019-05-26T15:13:58Z</time>
      </trkpt>
      <trkpt lat="42.83455" lon="0.9342">
        <ele>1014.8088378906</ele>
        <time>2019-05-26T15:14:10Z</time>
      </trkpt>
      <trkpt lat="42.8345" lon="0.93432">
        <ele>1015.2895507812</ele>
        <time>2019-05-26T15:14:31Z</time>
      </trkpt>
      <trkpt lat="42.83446" lon="0.93439">
        <ele>1015.7702636719</ele>
        <time>2019-05-26T15:14:50Z</time>
      </trkpt>
      <trkpt lat="42.83439" lon="0.93451">
        <ele>1015.2895507812</ele>
        <time>2019-05-26T15:15:16Z</time>
      </trkpt>
    </trkseg>
  </trk>
</gpx>